<?xml version="1.0" encoding="UTF-8" standalone="no" ?>
<gpx xmlns="http://www.topografix.com/GPX/1/1" xmlns:xsi="http://www.w3.org/2001/XMLSchema-instance" xsi:schemaLocation="http://www.topografix.com/GPX/1/1 http://www.topografix.com/GPX/1/1/gpx.xsd" version="1.1" creator="VisuGPX - https://www.visugpx.com">
  <metadata>
    <name>Pastourelle 2013 : marche 10km</name>
    <desc><![CDATA[Suite à annulation de la grande marche pour cause de mauvais temps, la rando initiale de 32km a été réduite à 10km. C\'est le parcours de la \"Buronnière\"]]></desc>
  </metadata>
  <trk>
    <name><![CDATA[Marche_Pastourelle_2013]]></name>
    <trkseg>
      <trkpt lat="45.13847" lon="2.49361">
        <ele>945.59399414062</ele>
        <time>2013-05-25T08:47:46Z</time>
      </trkpt>
      <trkpt lat="45.13858" lon="2.49356">
        <ele>943.19067382812</ele>
        <time>2013-05-25T08:48:05Z</time>
      </trkpt>
      <trkpt lat="45.13859" lon="2.49361">
        <ele>939.34521484375</ele>
        <time>2013-05-25T08:48:34Z</time>
      </trkpt>
      <trkpt lat="45.13869" lon="2.49345">
        <ele>939.34521484375</ele>
        <time>2013-05-25T08:48:52Z</time>
      </trkpt>
      <trkpt lat="45.13869" lon="2.49337">
        <ele>939.82592773438</ele>
        <time>2013-05-25T08:49:03Z</time>
      </trkpt>
      <trkpt lat="45.13878" lon="2.49346">
        <ele>940.78735351562</ele>
        <time>2013-05-25T08:49:06Z</time>
      </trkpt>
      <trkpt lat="45.13888" lon="2.49353">
        <ele>941.26806640625</ele>
        <time>2013-05-25T08:49:11Z</time>
      </trkpt>
      <trkpt lat="45.13893" lon="2.49356">
        <ele>942.2294921875</ele>
        <time>2013-05-25T08:49:14Z</time>
      </trkpt>
      <trkpt lat="45.13895" lon="2.49362">
        <ele>942.71020507812</ele>
        <time>2013-05-25T08:49:18Z</time>
      </trkpt>
      <trkpt lat="45.13895" lon="2.49364">
        <ele>944.15209960938</ele>
        <time>2013-05-25T08:49:20Z</time>
      </trkpt>
      <trkpt lat="45.13898" lon="2.49387">
        <ele>946.07470703125</ele>
        <time>2013-05-25T08:49:34Z</time>
      </trkpt>
      <trkpt lat="45.13897" lon="2.49388">
        <ele>946.07470703125</ele>
        <time>2013-05-25T08:49:35Z</time>
      </trkpt>
      <trkpt lat="45.13899" lon="2.49394">
        <ele>946.07470703125</ele>
        <time>2013-05-25T08:49:40Z</time>
      </trkpt>
      <trkpt lat="45.13899" lon="2.49399">
        <ele>947.03588867188</ele>
        <time>2013-05-25T08:49:45Z</time>
      </trkpt>
      <trkpt lat="45.13911" lon="2.49418">
        <ele>948.47778320312</ele>
        <time>2013-05-25T08:49:59Z</time>
      </trkpt>
      <trkpt lat="45.13916" lon="2.49417">
        <ele>948.47778320312</ele>
        <time>2013-05-25T08:50:04Z</time>
      </trkpt>
      <trkpt lat="45.13939" lon="2.49413">
        <ele>947.5166015625</ele>
        <time>2013-05-25T08:50:20Z</time>
      </trkpt>
      <trkpt lat="45.13953" lon="2.49414">
        <ele>947.5166015625</ele>
        <time>2013-05-25T08:50:29Z</time>
      </trkpt>
      <trkpt lat="45.13974" lon="2.49414">
        <ele>946.07470703125</ele>
        <time>2013-05-25T08:50:45Z</time>
      </trkpt>
      <trkpt lat="45.13996" lon="2.49396">
        <ele>943.67138671875</ele>
        <time>2013-05-25T08:51:05Z</time>
      </trkpt>
      <trkpt lat="45.14006" lon="2.49369">
        <ele>940.30688476562</ele>
        <time>2013-05-25T08:51:20Z</time>
      </trkpt>
      <trkpt lat="45.14011" lon="2.49359">
        <ele>939.82592773438</ele>
        <time>2013-05-25T08:51:26Z</time>
      </trkpt>
      <trkpt lat="45.1403" lon="2.49335">
        <ele>936.94189453125</ele>
        <time>2013-05-25T08:51:42Z</time>
      </trkpt>
      <trkpt lat="45.14039" lon="2.49327">
        <ele>936.46142578125</ele>
        <time>2013-05-25T08:51:54Z</time>
      </trkpt>
      <trkpt lat="45.14044" lon="2.49346">
        <ele>934.53881835938</ele>
        <time>2013-05-25T08:52:12Z</time>
      </trkpt>
      <trkpt lat="45.14054" lon="2.49359">
        <ele>933.57739257812</ele>
        <time>2013-05-25T08:52:29Z</time>
      </trkpt>
      <trkpt lat="45.14055" lon="2.4937">
        <ele>934.05810546875</ele>
        <time>2013-05-25T08:52:39Z</time>
      </trkpt>
      <trkpt lat="45.14057" lon="2.49379">
        <ele>934.05810546875</ele>
        <time>2013-05-25T08:52:44Z</time>
      </trkpt>
      <trkpt lat="45.14057" lon="2.49394">
        <ele>934.05810546875</ele>
        <time>2013-05-25T08:52:55Z</time>
      </trkpt>
      <trkpt lat="45.1406" lon="2.49404">
        <ele>935.01953125</ele>
        <time>2013-05-25T08:53:04Z</time>
      </trkpt>
      <trkpt lat="45.14061" lon="2.49428">
        <ele>935.98071289062</ele>
        <time>2013-05-25T08:53:22Z</time>
      </trkpt>
      <trkpt lat="45.14067" lon="2.49434">
        <ele>936.94189453125</ele>
        <time>2013-05-25T08:53:28Z</time>
      </trkpt>
      <trkpt lat="45.14081" lon="2.49451">
        <ele>939.34521484375</ele>
        <time>2013-05-25T08:53:46Z</time>
      </trkpt>
      <trkpt lat="45.14098" lon="2.49474">
        <ele>942.2294921875</ele>
        <time>2013-05-25T08:54:08Z</time>
      </trkpt>
      <trkpt lat="45.14093" lon="2.49501">
        <ele>944.15209960938</ele>
        <time>2013-05-25T08:54:21Z</time>
      </trkpt>
      <trkpt lat="45.14091" lon="2.4951">
        <ele>944.63256835938</ele>
        <time>2013-05-25T08:54:26Z</time>
      </trkpt>
      <trkpt lat="45.14092" lon="2.49519">
        <ele>945.59399414062</ele>
        <time>2013-05-25T08:54:30Z</time>
      </trkpt>
      <trkpt lat="45.14088" lon="2.49532">
        <ele>945.59399414062</ele>
        <time>2013-05-25T08:54:40Z</time>
      </trkpt>
      <trkpt lat="45.14089" lon="2.4954">
        <ele>946.07470703125</ele>
        <time>2013-05-25T08:54:46Z</time>
      </trkpt>
      <trkpt lat="45.14088" lon="2.49549">
        <ele>946.07470703125</ele>
        <time>2013-05-25T08:54:58Z</time>
      </trkpt>
      <trkpt lat="45.14086" lon="2.49561">
        <ele>947.03588867188</ele>
        <time>2013-05-25T08:55:10Z</time>
      </trkpt>
      <trkpt lat="45.14087" lon="2.49579">
        <ele>947.03588867188</ele>
        <time>2013-05-25T08:55:22Z</time>
      </trkpt>
      <trkpt lat="45.14087" lon="2.49586">
        <ele>947.5166015625</ele>
        <time>2013-05-25T08:55:25Z</time>
      </trkpt>
      <trkpt lat="45.14087" lon="2.4959">
        <ele>946.55541992188</ele>
        <time>2013-05-25T08:55:28Z</time>
      </trkpt>
      <trkpt lat="45.14081" lon="2.49617">
        <ele>947.5166015625</ele>
        <time>2013-05-25T08:55:43Z</time>
      </trkpt>
      <trkpt lat="45.1407" lon="2.49641">
        <ele>948.47778320312</ele>
        <time>2013-05-25T08:55:58Z</time>
      </trkpt>
      <trkpt lat="45.14065" lon="2.49655">
        <ele>949.43920898438</ele>
        <time>2013-05-25T08:56:09Z</time>
      </trkpt>
      <trkpt lat="45.14067" lon="2.49659">
        <ele>949.43920898438</ele>
        <time>2013-05-25T08:56:13Z</time>
      </trkpt>
      <trkpt lat="45.14073" lon="2.49667">
        <ele>949.43920898438</ele>
        <time>2013-05-25T08:56:19Z</time>
      </trkpt>
      <trkpt lat="45.14074" lon="2.49669">
        <ele>949.919921875</ele>
        <time>2013-05-25T08:56:21Z</time>
      </trkpt>
      <trkpt lat="45.14079" lon="2.49696">
        <ele>951.84252929688</ele>
        <time>2013-05-25T08:56:37Z</time>
      </trkpt>
      <trkpt lat="45.14082" lon="2.497">
        <ele>952.32299804688</ele>
        <time>2013-05-25T08:56:40Z</time>
      </trkpt>
      <trkpt lat="45.14078" lon="2.49707">
        <ele>952.32299804688</ele>
        <time>2013-05-25T08:56:45Z</time>
      </trkpt>
      <trkpt lat="45.14045" lon="2.49714">
        <ele>952.8037109375</ele>
        <time>2013-05-25T08:57:09Z</time>
      </trkpt>
      <trkpt lat="45.14029" lon="2.49721">
        <ele>954.24584960938</ele>
        <time>2013-05-25T08:57:22Z</time>
      </trkpt>
      <trkpt lat="45.14016" lon="2.49725">
        <ele>955.20703125</ele>
        <time>2013-05-25T08:57:33Z</time>
      </trkpt>
      <trkpt lat="45.1401" lon="2.49726">
        <ele>954.24584960938</ele>
        <time>2013-05-25T08:57:39Z</time>
      </trkpt>
      <trkpt lat="45.14006" lon="2.4973">
        <ele>954.24584960938</ele>
        <time>2013-05-25T08:57:43Z</time>
      </trkpt>
      <trkpt lat="45.14003" lon="2.49731">
        <ele>953.76513671875</ele>
        <time>2013-05-25T08:57:46Z</time>
      </trkpt>
      <trkpt lat="45.14001" lon="2.49736">
        <ele>954.72631835938</ele>
        <time>2013-05-25T08:57:53Z</time>
      </trkpt>
      <trkpt lat="45.13997" lon="2.49752">
        <ele>955.20703125</ele>
        <time>2013-05-25T08:58:01Z</time>
      </trkpt>
      <trkpt lat="45.13995" lon="2.49768">
        <ele>956.64916992188</ele>
        <time>2013-05-25T08:58:09Z</time>
      </trkpt>
      <trkpt lat="45.13992" lon="2.49773">
        <ele>956.64916992188</ele>
        <time>2013-05-25T08:58:14Z</time>
      </trkpt>
      <trkpt lat="45.1399" lon="2.49786">
        <ele>957.61059570312</ele>
        <time>2013-05-25T08:58:20Z</time>
      </trkpt>
      <trkpt lat="45.13992" lon="2.49803">
        <ele>960.013671875</ele>
        <time>2013-05-25T08:58:29Z</time>
      </trkpt>
      <trkpt lat="45.1399" lon="2.49831">
        <ele>961.9365234375</ele>
        <time>2013-05-25T08:58:46Z</time>
      </trkpt>
      <trkpt lat="45.13991" lon="2.49832">
        <ele>961.9365234375</ele>
        <time>2013-05-25T08:58:47Z</time>
      </trkpt>
      <trkpt lat="45.13994" lon="2.49841">
        <ele>964.33959960938</ele>
        <time>2013-05-25T08:58:53Z</time>
      </trkpt>
      <trkpt lat="45.14" lon="2.49881">
        <ele>967.7041015625</ele>
        <time>2013-05-25T08:59:16Z</time>
      </trkpt>
      <trkpt lat="45.14" lon="2.49901">
        <ele>968.18481445312</ele>
        <time>2013-05-25T08:59:31Z</time>
      </trkpt>
      <trkpt lat="45.13998" lon="2.49918">
        <ele>970.107421875</ele>
        <time>2013-05-25T08:59:47Z</time>
      </trkpt>
      <trkpt lat="45.13998" lon="2.4993">
        <ele>971.54931640625</ele>
        <time>2013-05-25T08:59:57Z</time>
      </trkpt>
      <trkpt lat="45.14001" lon="2.49941">
        <ele>972.0302734375</ele>
        <time>2013-05-25T09:00:05Z</time>
      </trkpt>
      <trkpt lat="45.13997" lon="2.49949">
        <ele>972.0302734375</ele>
        <time>2013-05-25T09:00:18Z</time>
      </trkpt>
      <trkpt lat="45.14004" lon="2.49969">
        <ele>972.51098632812</ele>
        <time>2013-05-25T09:00:31Z</time>
      </trkpt>
      <trkpt lat="45.14011" lon="2.49979">
        <ele>972.0302734375</ele>
        <time>2013-05-25T09:00:48Z</time>
      </trkpt>
      <trkpt lat="45.14015" lon="2.49985">
        <ele>972.51098632812</ele>
        <time>2013-05-25T09:01:02Z</time>
      </trkpt>
      <trkpt lat="45.14018" lon="2.49988">
        <ele>972.51098632812</ele>
        <time>2013-05-25T09:01:23Z</time>
      </trkpt>
      <trkpt lat="45.14027" lon="2.49993">
        <ele>972.99169921875</ele>
        <time>2013-05-25T09:01:38Z</time>
      </trkpt>
      <trkpt lat="45.14031" lon="2.5">
        <ele>973.47241210938</ele>
        <time>2013-05-25T09:01:53Z</time>
      </trkpt>
      <trkpt lat="45.14035" lon="2.50006">
        <ele>974.43359375</ele>
        <time>2013-05-25T09:02:04Z</time>
      </trkpt>
      <trkpt lat="45.14036" lon="2.50007">
        <ele>974.43359375</ele>
        <time>2013-05-25T09:02:05Z</time>
      </trkpt>
      <trkpt lat="45.14041" lon="2.5001">
        <ele>974.91430664062</ele>
        <time>2013-05-25T09:02:21Z</time>
      </trkpt>
      <trkpt lat="45.14046" lon="2.50017">
        <ele>974.91430664062</ele>
        <time>2013-05-25T09:02:30Z</time>
      </trkpt>
      <trkpt lat="45.14062" lon="2.5003">
        <ele>974.91430664062</ele>
        <time>2013-05-25T09:02:46Z</time>
      </trkpt>
      <trkpt lat="45.14069" lon="2.50042">
        <ele>974.91430664062</ele>
        <time>2013-05-25T09:03:00Z</time>
      </trkpt>
      <trkpt lat="45.14076" lon="2.50053">
        <ele>975.87548828125</ele>
        <time>2013-05-25T09:03:11Z</time>
      </trkpt>
      <trkpt lat="45.14084" lon="2.50063">
        <ele>975.39477539062</ele>
        <time>2013-05-25T09:03:23Z</time>
      </trkpt>
      <trkpt lat="45.14085" lon="2.50065">
        <ele>975.87548828125</ele>
        <time>2013-05-25T09:03:25Z</time>
      </trkpt>
      <trkpt lat="45.14089" lon="2.50075">
        <ele>974.43359375</ele>
        <time>2013-05-25T09:03:44Z</time>
      </trkpt>
      <trkpt lat="45.14092" lon="2.50084">
        <ele>976.35620117188</ele>
        <time>2013-05-25T09:03:56Z</time>
      </trkpt>
      <trkpt lat="45.14096" lon="2.50092">
        <ele>976.8369140625</ele>
        <time>2013-05-25T09:04:02Z</time>
      </trkpt>
      <trkpt lat="45.14102" lon="2.50098">
        <ele>977.31762695312</ele>
        <time>2013-05-25T09:04:10Z</time>
      </trkpt>
      <trkpt lat="45.14104" lon="2.50104">
        <ele>977.31762695312</ele>
        <time>2013-05-25T09:04:16Z</time>
      </trkpt>
      <trkpt lat="45.14107" lon="2.50118">
        <ele>977.79809570312</ele>
        <time>2013-05-25T09:04:29Z</time>
      </trkpt>
      <trkpt lat="45.14114" lon="2.50135">
        <ele>978.75952148438</ele>
        <time>2013-05-25T09:04:47Z</time>
      </trkpt>
      <trkpt lat="45.14119" lon="2.50143">
        <ele>976.8369140625</ele>
        <time>2013-05-25T09:04:57Z</time>
      </trkpt>
      <trkpt lat="45.14124" lon="2.50158">
        <ele>976.8369140625</ele>
        <time>2013-05-25T09:05:10Z</time>
      </trkpt>
      <trkpt lat="45.14134" lon="2.50178">
        <ele>976.8369140625</ele>
        <time>2013-05-25T09:05:25Z</time>
      </trkpt>
      <trkpt lat="45.14136" lon="2.50181">
        <ele>975.39477539062</ele>
        <time>2013-05-25T09:05:27Z</time>
      </trkpt>
      <trkpt lat="45.14138" lon="2.50184">
        <ele>976.8369140625</ele>
        <time>2013-05-25T09:05:29Z</time>
      </trkpt>
      <trkpt lat="45.1414" lon="2.50187">
        <ele>976.8369140625</ele>
        <time>2013-05-25T09:05:31Z</time>
      </trkpt>
      <trkpt lat="45.14149" lon="2.50202">
        <ele>976.35620117188</ele>
        <time>2013-05-25T09:05:43Z</time>
      </trkpt>
      <trkpt lat="45.14156" lon="2.50214">
        <ele>976.8369140625</ele>
        <time>2013-05-25T09:05:51Z</time>
      </trkpt>
      <trkpt lat="45.14158" lon="2.5022">
        <ele>977.79809570312</ele>
        <time>2013-05-25T09:05:54Z</time>
      </trkpt>
      <trkpt lat="45.14159" lon="2.50223">
        <ele>976.8369140625</ele>
        <time>2013-05-25T09:05:56Z</time>
      </trkpt>
      <trkpt lat="45.1416" lon="2.50225">
        <ele>977.79809570312</ele>
        <time>2013-05-25T09:05:58Z</time>
      </trkpt>
      <trkpt lat="45.14171" lon="2.50243">
        <ele>978.75952148438</ele>
        <time>2013-05-25T09:06:13Z</time>
      </trkpt>
      <trkpt lat="45.14176" lon="2.50249">
        <ele>979.23999023438</ele>
        <time>2013-05-25T09:06:19Z</time>
      </trkpt>
      <trkpt lat="45.14183" lon="2.50254">
        <ele>979.720703125</ele>
        <time>2013-05-25T09:06:25Z</time>
      </trkpt>
      <trkpt lat="45.14191" lon="2.50264">
        <ele>981.16284179688</ele>
        <time>2013-05-25T09:06:36Z</time>
      </trkpt>
      <trkpt lat="45.14196" lon="2.50272">
        <ele>982.60473632812</ele>
        <time>2013-05-25T09:06:45Z</time>
      </trkpt>
      <trkpt lat="45.14196" lon="2.50279">
        <ele>984.04663085938</ele>
        <time>2013-05-25T09:06:49Z</time>
      </trkpt>
      <trkpt lat="45.14207" lon="2.50296">
        <ele>984.04663085938</ele>
        <time>2013-05-25T09:07:04Z</time>
      </trkpt>
      <trkpt lat="45.14207" lon="2.50297">
        <ele>984.52734375</ele>
        <time>2013-05-25T09:07:05Z</time>
      </trkpt>
      <trkpt lat="45.14212" lon="2.50314">
        <ele>985.96923828125</ele>
        <time>2013-05-25T09:07:19Z</time>
      </trkpt>
      <trkpt lat="45.14212" lon="2.50315">
        <ele>985.96923828125</ele>
        <time>2013-05-25T09:07:20Z</time>
      </trkpt>
      <trkpt lat="45.14213" lon="2.50322">
        <ele>985.96923828125</ele>
        <time>2013-05-25T09:07:24Z</time>
      </trkpt>
      <trkpt lat="45.14223" lon="2.50347">
        <ele>985.48852539062</ele>
        <time>2013-05-25T09:07:43Z</time>
      </trkpt>
      <trkpt lat="45.14228" lon="2.50357">
        <ele>985.96923828125</ele>
        <time>2013-05-25T09:07:51Z</time>
      </trkpt>
      <trkpt lat="45.14229" lon="2.5036">
        <ele>985.96923828125</ele>
        <time>2013-05-25T09:07:53Z</time>
      </trkpt>
      <trkpt lat="45.14238" lon="2.50375">
        <ele>986.93041992188</ele>
        <time>2013-05-25T09:08:06Z</time>
      </trkpt>
      <trkpt lat="45.14255" lon="2.50394">
        <ele>988.853515625</ele>
        <time>2013-05-25T09:08:26Z</time>
      </trkpt>
      <trkpt lat="45.14262" lon="2.50401">
        <ele>988.853515625</ele>
        <time>2013-05-25T09:08:33Z</time>
      </trkpt>
      <trkpt lat="45.14278" lon="2.50415">
        <ele>988.853515625</ele>
        <time>2013-05-25T09:08:48Z</time>
      </trkpt>
      <trkpt lat="45.14281" lon="2.50417">
        <ele>989.81469726562</ele>
        <time>2013-05-25T09:08:52Z</time>
      </trkpt>
      <trkpt lat="45.14284" lon="2.5042">
        <ele>989.81469726562</ele>
        <time>2013-05-25T09:08:55Z</time>
      </trkpt>
      <trkpt lat="45.14285" lon="2.50427">
        <ele>989.333984375</ele>
        <time>2013-05-25T09:08:59Z</time>
      </trkpt>
      <trkpt lat="45.14303" lon="2.50448">
        <ele>991.25659179688</ele>
        <time>2013-05-25T09:09:18Z</time>
      </trkpt>
      <trkpt lat="45.14318" lon="2.50469">
        <ele>992.69873046875</ele>
        <time>2013-05-25T09:09:38Z</time>
      </trkpt>
      <trkpt lat="45.14334" lon="2.50486">
        <ele>995.10180664062</ele>
        <time>2013-05-25T09:09:57Z</time>
      </trkpt>
      <trkpt lat="45.14349" lon="2.50496">
        <ele>996.06323242188</ele>
        <time>2013-05-25T09:10:12Z</time>
      </trkpt>
      <trkpt lat="45.14354" lon="2.50507">
        <ele>997.50512695312</ele>
        <time>2013-05-25T09:10:20Z</time>
      </trkpt>
      <trkpt lat="45.14359" lon="2.50518">
        <ele>997.50512695312</ele>
        <time>2013-05-25T09:10:30Z</time>
      </trkpt>
      <trkpt lat="45.14361" lon="2.50527">
        <ele>998.46630859375</ele>
        <time>2013-05-25T09:10:35Z</time>
      </trkpt>
      <trkpt lat="45.1437" lon="2.50539">
        <ele>999.90844726562</ele>
        <time>2013-05-25T09:10:47Z</time>
      </trkpt>
      <trkpt lat="45.14376" lon="2.50549">
        <ele>1000.8696289062</ele>
        <time>2013-05-25T09:10:57Z</time>
      </trkpt>
      <trkpt lat="45.14381" lon="2.5056">
        <ele>1002.3115234375</ele>
        <time>2013-05-25T09:11:09Z</time>
      </trkpt>
      <trkpt lat="45.14387" lon="2.50569">
        <ele>1002.7922363281</ele>
        <time>2013-05-25T09:11:19Z</time>
      </trkpt>
      <trkpt lat="45.14393" lon="2.50589">
        <ele>1004.7150878906</ele>
        <time>2013-05-25T09:11:33Z</time>
      </trkpt>
      <trkpt lat="45.14402" lon="2.50605">
        <ele>1006.1569824219</ele>
        <time>2013-05-25T09:11:49Z</time>
      </trkpt>
      <trkpt lat="45.144" lon="2.50615">
        <ele>1006.6376953125</ele>
        <time>2013-05-25T09:11:57Z</time>
      </trkpt>
      <trkpt lat="45.14399" lon="2.50634">
        <ele>1008.0798339844</ele>
        <time>2013-05-25T09:12:10Z</time>
      </trkpt>
      <trkpt lat="45.144" lon="2.50645">
        <ele>1008.0798339844</ele>
        <time>2013-05-25T09:12:18Z</time>
      </trkpt>
      <trkpt lat="45.14403" lon="2.50673">
        <ele>1008.5603027344</ele>
        <time>2013-05-25T09:12:33Z</time>
      </trkpt>
      <trkpt lat="45.14411" lon="2.50697">
        <ele>1009.5217285156</ele>
        <time>2013-05-25T09:12:48Z</time>
      </trkpt>
      <trkpt lat="45.14417" lon="2.50715">
        <ele>1011.4443359375</ele>
        <time>2013-05-25T09:13:02Z</time>
      </trkpt>
      <trkpt lat="45.14418" lon="2.50716">
        <ele>1011.4443359375</ele>
        <time>2013-05-25T09:13:03Z</time>
      </trkpt>
      <trkpt lat="45.1442" lon="2.5072">
        <ele>1012.4055175781</ele>
        <time>2013-05-25T09:13:06Z</time>
      </trkpt>
      <trkpt lat="45.14426" lon="2.50739">
        <ele>1013.3669433594</ele>
        <time>2013-05-25T09:13:18Z</time>
      </trkpt>
      <trkpt lat="45.14432" lon="2.50759">
        <ele>1015.2895507812</ele>
        <time>2013-05-25T09:13:33Z</time>
      </trkpt>
      <trkpt lat="45.14439" lon="2.50773">
        <ele>1017.2121582031</ele>
        <time>2013-05-25T09:13:46Z</time>
      </trkpt>
      <trkpt lat="45.14446" lon="2.50786">
        <ele>1017.6926269531</ele>
        <time>2013-05-25T09:13:57Z</time>
      </trkpt>
      <trkpt lat="45.1446" lon="2.50803">
        <ele>1018.6540527344</ele>
        <time>2013-05-25T09:14:12Z</time>
      </trkpt>
      <trkpt lat="45.14461" lon="2.50807">
        <ele>1018.6540527344</ele>
        <time>2013-05-25T09:14:14Z</time>
      </trkpt>
      <trkpt lat="45.14466" lon="2.50824">
        <ele>1018.6540527344</ele>
        <time>2013-05-25T09:14:29Z</time>
      </trkpt>
      <trkpt lat="45.14476" lon="2.50839">
        <ele>1019.6154785156</ele>
        <time>2013-05-25T09:14:44Z</time>
      </trkpt>
      <trkpt lat="45.14483" lon="2.50851">
        <ele>1019.6154785156</ele>
        <time>2013-05-25T09:14:55Z</time>
      </trkpt>
      <trkpt lat="45.14487" lon="2.50854">
        <ele>1019.6154785156</ele>
        <time>2013-05-25T09:14:59Z</time>
      </trkpt>
      <trkpt lat="45.14497" lon="2.50866">
        <ele>1020.5769042969</ele>
        <time>2013-05-25T09:15:13Z</time>
      </trkpt>
      <trkpt lat="45.14511" lon="2.50886">
        <ele>1020.0961914062</ele>
        <time>2013-05-25T09:15:31Z</time>
      </trkpt>
      <trkpt lat="45.14514" lon="2.50895">
        <ele>1020.5769042969</ele>
        <time>2013-05-25T09:15:51Z</time>
      </trkpt>
      <trkpt lat="45.1452" lon="2.50911">
        <ele>1021.0576171875</ele>
        <time>2013-05-25T09:16:07Z</time>
      </trkpt>
      <trkpt lat="45.14525" lon="2.5092">
        <ele>1021.0576171875</ele>
        <time>2013-05-25T09:16:13Z</time>
      </trkpt>
      <trkpt lat="45.14526" lon="2.50921">
        <ele>1020.5769042969</ele>
        <time>2013-05-25T09:16:15Z</time>
      </trkpt>
      <trkpt lat="45.14533" lon="2.50933">
        <ele>1021.0576171875</ele>
        <time>2013-05-25T09:16:27Z</time>
      </trkpt>
      <trkpt lat="45.14545" lon="2.50953">
        <ele>1021.0576171875</ele>
        <time>2013-05-25T09:16:42Z</time>
      </trkpt>
      <trkpt lat="45.14562" lon="2.5098">
        <ele>1021.5380859375</ele>
        <time>2013-05-25T09:17:04Z</time>
      </trkpt>
      <trkpt lat="45.14569" lon="2.50991">
        <ele>1022.0187988281</ele>
        <time>2013-05-25T09:17:14Z</time>
      </trkpt>
      <trkpt lat="45.14574" lon="2.50998">
        <ele>1022.0187988281</ele>
        <time>2013-05-25T09:17:20Z</time>
      </trkpt>
      <trkpt lat="45.1458" lon="2.51007">
        <ele>1022.4995117188</ele>
        <time>2013-05-25T09:17:28Z</time>
      </trkpt>
      <trkpt lat="45.14582" lon="2.5101">
        <ele>1022.4995117188</ele>
        <time>2013-05-25T09:17:30Z</time>
      </trkpt>
      <trkpt lat="45.14584" lon="2.51015">
        <ele>1022.9802246094</ele>
        <time>2013-05-25T09:17:34Z</time>
      </trkpt>
      <trkpt lat="45.14588" lon="2.51024">
        <ele>1022.9802246094</ele>
        <time>2013-05-25T09:17:42Z</time>
      </trkpt>
      <trkpt lat="45.14597" lon="2.51034">
        <ele>1023.4609375</ele>
        <time>2013-05-25T09:17:54Z</time>
      </trkpt>
      <trkpt lat="45.14603" lon="2.51039">
        <ele>1023.4609375</ele>
        <time>2013-05-25T09:18:00Z</time>
      </trkpt>
      <trkpt lat="45.14609" lon="2.51054">
        <ele>1023.94140625</ele>
        <time>2013-05-25T09:18:12Z</time>
      </trkpt>
      <trkpt lat="45.14613" lon="2.51058">
        <ele>1023.94140625</ele>
        <time>2013-05-25T09:18:25Z</time>
      </trkpt>
      <trkpt lat="45.14617" lon="2.51062">
        <ele>1023.94140625</ele>
        <time>2013-05-25T09:18:33Z</time>
      </trkpt>
      <trkpt lat="45.14621" lon="2.51068">
        <ele>1024.4221191406</ele>
        <time>2013-05-25T09:18:38Z</time>
      </trkpt>
      <trkpt lat="45.14638" lon="2.51084">
        <ele>1025.3833007812</ele>
        <time>2013-05-25T09:18:55Z</time>
      </trkpt>
      <trkpt lat="45.14639" lon="2.5109">
        <ele>1025.8640136719</ele>
        <time>2013-05-25T09:19:01Z</time>
      </trkpt>
      <trkpt lat="45.14645" lon="2.51098">
        <ele>1026.8254394531</ele>
        <time>2013-05-25T09:19:14Z</time>
      </trkpt>
      <trkpt lat="45.14651" lon="2.51102">
        <ele>1028.2673339844</ele>
        <time>2013-05-25T09:19:32Z</time>
      </trkpt>
      <trkpt lat="45.14655" lon="2.51096">
        <ele>1028.2673339844</ele>
        <time>2013-05-25T09:19:39Z</time>
      </trkpt>
      <trkpt lat="45.14661" lon="2.51085">
        <ele>1028.748046875</ele>
        <time>2013-05-25T09:19:51Z</time>
      </trkpt>
      <trkpt lat="45.14671" lon="2.51062">
        <ele>1028.748046875</ele>
        <time>2013-05-25T09:20:11Z</time>
      </trkpt>
      <trkpt lat="45.14679" lon="2.51051">
        <ele>1028.748046875</ele>
        <time>2013-05-25T09:20:23Z</time>
      </trkpt>
      <trkpt lat="45.14692" lon="2.51039">
        <ele>1027.7866210938</ele>
        <time>2013-05-25T09:20:38Z</time>
      </trkpt>
      <trkpt lat="45.14696" lon="2.51036">
        <ele>1027.7866210938</ele>
        <time>2013-05-25T09:20:45Z</time>
      </trkpt>
      <trkpt lat="45.14704" lon="2.51029">
        <ele>1026.3447265625</ele>
        <time>2013-05-25T09:20:59Z</time>
      </trkpt>
      <trkpt lat="45.14719" lon="2.5102">
        <ele>1025.8640136719</ele>
        <time>2013-05-25T09:21:18Z</time>
      </trkpt>
      <trkpt lat="45.14727" lon="2.51027">
        <ele>1026.3447265625</ele>
        <time>2013-05-25T09:21:32Z</time>
      </trkpt>
      <trkpt lat="45.14731" lon="2.51036">
        <ele>1027.3061523438</ele>
        <time>2013-05-25T09:21:40Z</time>
      </trkpt>
      <trkpt lat="45.14735" lon="2.51053">
        <ele>1028.748046875</ele>
        <time>2013-05-25T09:21:55Z</time>
      </trkpt>
      <trkpt lat="45.14735" lon="2.51055">
        <ele>1029.228515625</ele>
        <time>2013-05-25T09:21:57Z</time>
      </trkpt>
      <trkpt lat="45.14735" lon="2.51069">
        <ele>1030.6706542969</ele>
        <time>2013-05-25T09:22:08Z</time>
      </trkpt>
      <trkpt lat="45.14734" lon="2.51073">
        <ele>1031.1513671875</ele>
        <time>2013-05-25T09:22:18Z</time>
      </trkpt>
      <trkpt lat="45.14734" lon="2.51074">
        <ele>1031.1513671875</ele>
        <time>2013-05-25T09:22:29Z</time>
      </trkpt>
      <trkpt lat="45.14732" lon="2.51074">
        <ele>1030.6706542969</ele>
        <time>2013-05-25T09:22:48Z</time>
      </trkpt>
      <trkpt lat="45.14732" lon="2.51076">
        <ele>1031.6318359375</ele>
        <time>2013-05-25T09:23:30Z</time>
      </trkpt>
      <trkpt lat="45.1473" lon="2.51078">
        <ele>1032.1125488281</ele>
        <time>2013-05-25T09:23:37Z</time>
      </trkpt>
      <trkpt lat="45.14729" lon="2.51084">
        <ele>1032.5932617188</ele>
        <time>2013-05-25T09:23:44Z</time>
      </trkpt>
      <trkpt lat="45.1473" lon="2.51094">
        <ele>1034.03515625</ele>
        <time>2013-05-25T09:23:52Z</time>
      </trkpt>
      <trkpt lat="45.1473" lon="2.51109">
        <ele>1034.9965820312</ele>
        <time>2013-05-25T09:24:04Z</time>
      </trkpt>
      <trkpt lat="45.14733" lon="2.51124">
        <ele>1035.9577636719</ele>
        <time>2013-05-25T09:24:14Z</time>
      </trkpt>
      <trkpt lat="45.14733" lon="2.51131">
        <ele>1036.4387207031</ele>
        <time>2013-05-25T09:24:20Z</time>
      </trkpt>
      <trkpt lat="45.14731" lon="2.51147">
        <ele>1036.9191894531</ele>
        <time>2013-05-25T09:24:31Z</time>
      </trkpt>
      <trkpt lat="45.14733" lon="2.51159">
        <ele>1037.8806152344</ele>
        <time>2013-05-25T09:24:40Z</time>
      </trkpt>
      <trkpt lat="45.14733" lon="2.51168">
        <ele>1037.8806152344</ele>
        <time>2013-05-25T09:24:44Z</time>
      </trkpt>
      <trkpt lat="45.14731" lon="2.51178">
        <ele>1038.361328125</ele>
        <time>2013-05-25T09:24:51Z</time>
      </trkpt>
      <trkpt lat="45.14731" lon="2.51206">
        <ele>1039.3225097656</ele>
        <time>2013-05-25T09:25:08Z</time>
      </trkpt>
      <trkpt lat="45.14732" lon="2.51209">
        <ele>1039.3225097656</ele>
        <time>2013-05-25T09:25:10Z</time>
      </trkpt>
      <trkpt lat="45.14732" lon="2.51213">
        <ele>1039.3225097656</ele>
        <time>2013-05-25T09:25:12Z</time>
      </trkpt>
      <trkpt lat="45.14731" lon="2.51223">
        <ele>1039.8032226562</ele>
        <time>2013-05-25T09:25:24Z</time>
      </trkpt>
      <trkpt lat="45.14727" lon="2.51224">
        <ele>1040.2839355469</ele>
        <time>2013-05-25T09:25:29Z</time>
      </trkpt>
      <trkpt lat="45.14726" lon="2.51231">
        <ele>1040.7644042969</ele>
        <time>2013-05-25T09:25:34Z</time>
      </trkpt>
      <trkpt lat="45.14725" lon="2.51232">
        <ele>1041.7258300781</ele>
        <time>2013-05-25T09:25:36Z</time>
      </trkpt>
      <trkpt lat="45.14725" lon="2.51244">
        <ele>1042.6872558594</ele>
        <time>2013-05-25T09:25:44Z</time>
      </trkpt>
      <trkpt lat="45.14725" lon="2.51256">
        <ele>1043.1677246094</ele>
        <time>2013-05-25T09:25:52Z</time>
      </trkpt>
      <trkpt lat="45.14724" lon="2.51277">
        <ele>1044.6096191406</ele>
        <time>2013-05-25T09:26:08Z</time>
      </trkpt>
      <trkpt lat="45.14724" lon="2.51281">
        <ele>1045.0903320312</ele>
        <time>2013-05-25T09:26:11Z</time>
      </trkpt>
      <trkpt lat="45.14725" lon="2.51286">
        <ele>1044.6096191406</ele>
        <time>2013-05-25T09:26:14Z</time>
      </trkpt>
      <trkpt lat="45.14725" lon="2.51299">
        <ele>1045.0903320312</ele>
        <time>2013-05-25T09:26:23Z</time>
      </trkpt>
      <trkpt lat="45.14726" lon="2.51308">
        <ele>1046.0517578125</ele>
        <time>2013-05-25T09:26:31Z</time>
      </trkpt>
      <trkpt lat="45.14729" lon="2.51315">
        <ele>1046.5324707031</ele>
        <time>2013-05-25T09:26:37Z</time>
      </trkpt>
      <trkpt lat="45.14732" lon="2.51331">
        <ele>1046.5324707031</ele>
        <time>2013-05-25T09:26:47Z</time>
      </trkpt>
      <trkpt lat="45.14737" lon="2.51352">
        <ele>1047.0129394531</ele>
        <time>2013-05-25T09:27:00Z</time>
      </trkpt>
      <trkpt lat="45.14737" lon="2.51355">
        <ele>1047.4936523438</ele>
        <time>2013-05-25T09:27:03Z</time>
      </trkpt>
      <trkpt lat="45.14739" lon="2.51361">
        <ele>1047.4936523438</ele>
        <time>2013-05-25T09:27:07Z</time>
      </trkpt>
      <trkpt lat="45.14743" lon="2.51378">
        <ele>1047.9743652344</ele>
        <time>2013-05-25T09:27:20Z</time>
      </trkpt>
      <trkpt lat="45.14744" lon="2.51381">
        <ele>1047.9743652344</ele>
        <time>2013-05-25T09:27:22Z</time>
      </trkpt>
      <trkpt lat="45.14746" lon="2.51389">
        <ele>1047.9743652344</ele>
        <time>2013-05-25T09:27:27Z</time>
      </trkpt>
      <trkpt lat="45.14747" lon="2.51395">
        <ele>1048.4548339844</ele>
        <time>2013-05-25T09:27:31Z</time>
      </trkpt>
      <trkpt lat="45.14751" lon="2.51412">
        <ele>1048.935546875</ele>
        <time>2013-05-25T09:27:44Z</time>
      </trkpt>
      <trkpt lat="45.14757" lon="2.51433">
        <ele>1049.4162597656</ele>
        <time>2013-05-25T09:27:58Z</time>
      </trkpt>
      <trkpt lat="45.14756" lon="2.51436">
        <ele>1049.8969726562</ele>
        <time>2013-05-25T09:28:01Z</time>
      </trkpt>
      <trkpt lat="45.14756" lon="2.51442">
        <ele>1049.8969726562</ele>
        <time>2013-05-25T09:28:05Z</time>
      </trkpt>
      <trkpt lat="45.14757" lon="2.51445">
        <ele>1050.3776855469</ele>
        <time>2013-05-25T09:28:08Z</time>
      </trkpt>
      <trkpt lat="45.14758" lon="2.51451">
        <ele>1050.8581542969</ele>
        <time>2013-05-25T09:28:12Z</time>
      </trkpt>
      <trkpt lat="45.14755" lon="2.51454">
        <ele>1050.8581542969</ele>
        <time>2013-05-25T09:28:16Z</time>
      </trkpt>
      <trkpt lat="45.14759" lon="2.51466">
        <ele>1051.8195800781</ele>
        <time>2013-05-25T09:28:24Z</time>
      </trkpt>
      <trkpt lat="45.14759" lon="2.51469">
        <ele>1051.8195800781</ele>
        <time>2013-05-25T09:28:26Z</time>
      </trkpt>
      <trkpt lat="45.14762" lon="2.5148">
        <ele>1052.3002929688</ele>
        <time>2013-05-25T09:28:33Z</time>
      </trkpt>
      <trkpt lat="45.14764" lon="2.51489">
        <ele>1052.7810058594</ele>
        <time>2013-05-25T09:28:40Z</time>
      </trkpt>
      <trkpt lat="45.14764" lon="2.51495">
        <ele>1053.26171875</ele>
        <time>2013-05-25T09:28:56Z</time>
      </trkpt>
      <trkpt lat="45.14764" lon="2.51496">
        <ele>1053.7424316406</ele>
        <time>2013-05-25T09:29:02Z</time>
      </trkpt>
      <trkpt lat="45.14764" lon="2.51502">
        <ele>1055.1843261719</ele>
        <time>2013-05-25T09:29:06Z</time>
      </trkpt>
      <trkpt lat="45.14768" lon="2.5152">
        <ele>1055.1843261719</ele>
        <time>2013-05-25T09:29:20Z</time>
      </trkpt>
      <trkpt lat="45.14768" lon="2.51528">
        <ele>1055.6650390625</ele>
        <time>2013-05-25T09:29:24Z</time>
      </trkpt>
      <trkpt lat="45.14771" lon="2.51534">
        <ele>1055.6650390625</ele>
        <time>2013-05-25T09:29:28Z</time>
      </trkpt>
      <trkpt lat="45.14772" lon="2.51544">
        <ele>1056.1455078125</ele>
        <time>2013-05-25T09:29:34Z</time>
      </trkpt>
      <trkpt lat="45.14778" lon="2.51558">
        <ele>1056.6262207031</ele>
        <time>2013-05-25T09:29:44Z</time>
      </trkpt>
      <trkpt lat="45.14781" lon="2.51566">
        <ele>1057.5876464844</ele>
        <time>2013-05-25T09:29:49Z</time>
      </trkpt>
      <trkpt lat="45.1478" lon="2.51569">
        <ele>1057.5876464844</ele>
        <time>2013-05-25T09:29:52Z</time>
      </trkpt>
      <trkpt lat="45.14782" lon="2.51573">
        <ele>1058.068359375</ele>
        <time>2013-05-25T09:29:56Z</time>
      </trkpt>
      <trkpt lat="45.14785" lon="2.51589">
        <ele>1058.548828125</ele>
        <time>2013-05-25T09:30:08Z</time>
      </trkpt>
      <trkpt lat="45.14798" lon="2.51601">
        <ele>1058.548828125</ele>
        <time>2013-05-25T09:30:15Z</time>
      </trkpt>
      <trkpt lat="45.14799" lon="2.5161">
        <ele>1059.5102539062</ele>
        <time>2013-05-25T09:30:22Z</time>
      </trkpt>
      <trkpt lat="45.14807" lon="2.51618">
        <ele>1059.5102539062</ele>
        <time>2013-05-25T09:30:29Z</time>
      </trkpt>
      <trkpt lat="45.14812" lon="2.51628">
        <ele>1059.5102539062</ele>
        <time>2013-05-25T09:30:38Z</time>
      </trkpt>
      <trkpt lat="45.14818" lon="2.51639">
        <ele>1059.9907226562</ele>
        <time>2013-05-25T09:30:43Z</time>
      </trkpt>
      <trkpt lat="45.14825" lon="2.51647">
        <ele>1060.4714355469</ele>
        <time>2013-05-25T09:30:49Z</time>
      </trkpt>
      <trkpt lat="45.14826" lon="2.51654">
        <ele>1060.4714355469</ele>
        <time>2013-05-25T09:30:53Z</time>
      </trkpt>
      <trkpt lat="45.14828" lon="2.51657">
        <ele>1060.4714355469</ele>
        <time>2013-05-25T09:30:56Z</time>
      </trkpt>
      <trkpt lat="45.14831" lon="2.51664">
        <ele>1060.9521484375</ele>
        <time>2013-05-25T09:31:02Z</time>
      </trkpt>
      <trkpt lat="45.14834" lon="2.51669">
        <ele>1061.4328613281</ele>
        <time>2013-05-25T09:31:07Z</time>
      </trkpt>
      <trkpt lat="45.14834" lon="2.51675">
        <ele>1060.9521484375</ele>
        <time>2013-05-25T09:31:11Z</time>
      </trkpt>
      <trkpt lat="45.14834" lon="2.51678">
        <ele>1060.9521484375</ele>
        <time>2013-05-25T09:31:13Z</time>
      </trkpt>
      <trkpt lat="45.14838" lon="2.51691">
        <ele>1061.9135742188</ele>
        <time>2013-05-25T09:31:21Z</time>
      </trkpt>
      <trkpt lat="45.1484" lon="2.51694">
        <ele>1060.9521484375</ele>
        <time>2013-05-25T09:31:23Z</time>
      </trkpt>
      <trkpt lat="45.14843" lon="2.51696">
        <ele>1061.9135742188</ele>
        <time>2013-05-25T09:31:27Z</time>
      </trkpt>
      <trkpt lat="45.14841" lon="2.517">
        <ele>1061.4328613281</ele>
        <time>2013-05-25T09:31:30Z</time>
      </trkpt>
      <trkpt lat="45.14848" lon="2.51718">
        <ele>1061.4328613281</ele>
        <time>2013-05-25T09:31:40Z</time>
      </trkpt>
      <trkpt lat="45.14848" lon="2.51724">
        <ele>1061.9135742188</ele>
        <time>2013-05-25T09:31:45Z</time>
      </trkpt>
      <trkpt lat="45.1485" lon="2.51728">
        <ele>1061.4328613281</ele>
        <time>2013-05-25T09:31:47Z</time>
      </trkpt>
      <trkpt lat="45.14855" lon="2.51735">
        <ele>1061.9135742188</ele>
        <time>2013-05-25T09:31:54Z</time>
      </trkpt>
      <trkpt lat="45.14858" lon="2.51741">
        <ele>1061.9135742188</ele>
        <time>2013-05-25T09:31:58Z</time>
      </trkpt>
      <trkpt lat="45.14863" lon="2.51755">
        <ele>1062.8747558594</ele>
        <time>2013-05-25T09:32:07Z</time>
      </trkpt>
      <trkpt lat="45.14864" lon="2.51759">
        <ele>1062.8747558594</ele>
        <time>2013-05-25T09:32:10Z</time>
      </trkpt>
      <trkpt lat="45.14866" lon="2.5176">
        <ele>1062.3940429688</ele>
        <time>2013-05-25T09:32:12Z</time>
      </trkpt>
      <trkpt lat="45.14867" lon="2.51769">
        <ele>1062.3940429688</ele>
        <time>2013-05-25T09:32:16Z</time>
      </trkpt>
      <trkpt lat="45.14869" lon="2.5177">
        <ele>1063.35546875</ele>
        <time>2013-05-25T09:32:20Z</time>
      </trkpt>
      <trkpt lat="45.14871" lon="2.51775">
        <ele>1062.8747558594</ele>
        <time>2013-05-25T09:32:23Z</time>
      </trkpt>
      <trkpt lat="45.14874" lon="2.5178">
        <ele>1063.35546875</ele>
        <time>2013-05-25T09:32:27Z</time>
      </trkpt>
      <trkpt lat="45.14876" lon="2.51785">
        <ele>1063.8359375</ele>
        <time>2013-05-25T09:32:30Z</time>
      </trkpt>
      <trkpt lat="45.14879" lon="2.51793">
        <ele>1064.3166503906</ele>
        <time>2013-05-25T09:32:34Z</time>
      </trkpt>
      <trkpt lat="45.14881" lon="2.51804">
        <ele>1064.7973632812</ele>
        <time>2013-05-25T09:32:42Z</time>
      </trkpt>
      <trkpt lat="45.14884" lon="2.5181">
        <ele>1065.2780761719</ele>
        <time>2013-05-25T09:32:49Z</time>
      </trkpt>
      <trkpt lat="45.14893" lon="2.51829">
        <ele>1066.7199707031</ele>
        <time>2013-05-25T09:33:01Z</time>
      </trkpt>
      <trkpt lat="45.14901" lon="2.51845">
        <ele>1066.7199707031</ele>
        <time>2013-05-25T09:33:13Z</time>
      </trkpt>
      <trkpt lat="45.14907" lon="2.51863">
        <ele>1066.2392578125</ele>
        <time>2013-05-25T09:33:27Z</time>
      </trkpt>
      <trkpt lat="45.14908" lon="2.51866">
        <ele>1066.2392578125</ele>
        <time>2013-05-25T09:33:29Z</time>
      </trkpt>
      <trkpt lat="45.14911" lon="2.51878">
        <ele>1065.2780761719</ele>
        <time>2013-05-25T09:33:42Z</time>
      </trkpt>
      <trkpt lat="45.14915" lon="2.51894">
        <ele>1065.7587890625</ele>
        <time>2013-05-25T09:33:49Z</time>
      </trkpt>
      <trkpt lat="45.14916" lon="2.51899">
        <ele>1065.2780761719</ele>
        <time>2013-05-25T09:33:53Z</time>
      </trkpt>
      <trkpt lat="45.14914" lon="2.51905">
        <ele>1065.2780761719</ele>
        <time>2013-05-25T09:33:55Z</time>
      </trkpt>
      <trkpt lat="45.14921" lon="2.51915">
        <ele>1065.2780761719</ele>
        <time>2013-05-25T09:34:03Z</time>
      </trkpt>
      <trkpt lat="45.14921" lon="2.51916">
        <ele>1064.7973632812</ele>
        <time>2013-05-25T09:34:05Z</time>
      </trkpt>
      <trkpt lat="45.14932" lon="2.51935">
        <ele>1065.7587890625</ele>
        <time>2013-05-25T09:34:18Z</time>
      </trkpt>
      <trkpt lat="45.14931" lon="2.51937">
        <ele>1065.7587890625</ele>
        <time>2013-05-25T09:34:19Z</time>
      </trkpt>
      <trkpt lat="45.14936" lon="2.51947">
        <ele>1066.2392578125</ele>
        <time>2013-05-25T09:34:26Z</time>
      </trkpt>
      <trkpt lat="45.14935" lon="2.51955">
        <ele>1066.2392578125</ele>
        <time>2013-05-25T09:34:30Z</time>
      </trkpt>
      <trkpt lat="45.14938" lon="2.51956">
        <ele>1066.2392578125</ele>
        <time>2013-05-25T09:34:32Z</time>
      </trkpt>
      <trkpt lat="45.14951" lon="2.5195">
        <ele>1067.2006835938</ele>
        <time>2013-05-25T09:34:45Z</time>
      </trkpt>
      <trkpt lat="45.14959" lon="2.51954">
        <ele>1069.6042480469</ele>
        <time>2013-05-25T09:35:00Z</time>
      </trkpt>
      <trkpt lat="45.14968" lon="2.5196">
        <ele>1072.0073242188</ele>
        <time>2013-05-25T09:35:13Z</time>
      </trkpt>
      <trkpt lat="45.1498" lon="2.51966">
        <ele>1074.8913574219</ele>
        <time>2013-05-25T09:35:27Z</time>
      </trkpt>
      <trkpt lat="45.14992" lon="2.51967">
        <ele>1077.7751464844</ele>
        <time>2013-05-25T09:35:43Z</time>
      </trkpt>
      <trkpt lat="45.14995" lon="2.51967">
        <ele>1079.2170410156</ele>
        <time>2013-05-25T09:35:49Z</time>
      </trkpt>
      <trkpt lat="45.15005" lon="2.51959">
        <ele>1080.6591796875</ele>
        <time>2013-05-25T09:36:02Z</time>
      </trkpt>
      <trkpt lat="45.15015" lon="2.51953">
        <ele>1081.1398925781</ele>
        <time>2013-05-25T09:36:13Z</time>
      </trkpt>
      <trkpt lat="45.15018" lon="2.51952">
        <ele>1081.1398925781</ele>
        <time>2013-05-25T09:36:17Z</time>
      </trkpt>
      <trkpt lat="45.15021" lon="2.5195">
        <ele>1081.1398925781</ele>
        <time>2013-05-25T09:36:19Z</time>
      </trkpt>
      <trkpt lat="45.15032" lon="2.5194">
        <ele>1079.6977539062</ele>
        <time>2013-05-25T09:36:29Z</time>
      </trkpt>
      <trkpt lat="45.15035" lon="2.51939">
        <ele>1080.1784667969</ele>
        <time>2013-05-25T09:36:32Z</time>
      </trkpt>
      <trkpt lat="45.15038" lon="2.51937">
        <ele>1079.6977539062</ele>
        <time>2013-05-25T09:36:35Z</time>
      </trkpt>
      <trkpt lat="45.15041" lon="2.51931">
        <ele>1079.2170410156</ele>
        <time>2013-05-25T09:36:40Z</time>
      </trkpt>
      <trkpt lat="45.15049" lon="2.51922">
        <ele>1079.2170410156</ele>
        <time>2013-05-25T09:36:48Z</time>
      </trkpt>
      <trkpt lat="45.1505" lon="2.51921">
        <ele>1079.2170410156</ele>
        <time>2013-05-25T09:36:50Z</time>
      </trkpt>
      <trkpt lat="45.15054" lon="2.51919">
        <ele>1079.2170410156</ele>
        <time>2013-05-25T09:36:54Z</time>
      </trkpt>
      <trkpt lat="45.15055" lon="2.51915">
        <ele>1079.2170410156</ele>
        <time>2013-05-25T09:36:57Z</time>
      </trkpt>
      <trkpt lat="45.15055" lon="2.51912">
        <ele>1078.7365722656</ele>
        <time>2013-05-25T09:36:59Z</time>
      </trkpt>
      <trkpt lat="45.15061" lon="2.51902">
        <ele>1079.6977539062</ele>
        <time>2013-05-25T09:37:09Z</time>
      </trkpt>
      <trkpt lat="45.15065" lon="2.51892">
        <ele>1078.255859375</ele>
        <time>2013-05-25T09:37:18Z</time>
      </trkpt>
      <trkpt lat="45.15066" lon="2.5189">
        <ele>1078.255859375</ele>
        <time>2013-05-25T09:37:19Z</time>
      </trkpt>
      <trkpt lat="45.15067" lon="2.5188">
        <ele>1078.255859375</ele>
        <time>2013-05-25T09:37:25Z</time>
      </trkpt>
      <trkpt lat="45.15066" lon="2.51874">
        <ele>1077.7751464844</ele>
        <time>2013-05-25T09:37:28Z</time>
      </trkpt>
      <trkpt lat="45.15072" lon="2.5187">
        <ele>1078.7365722656</ele>
        <time>2013-05-25T09:37:32Z</time>
      </trkpt>
      <trkpt lat="45.15075" lon="2.51863">
        <ele>1077.7751464844</ele>
        <time>2013-05-25T09:37:35Z</time>
      </trkpt>
      <trkpt lat="45.15077" lon="2.5186">
        <ele>1078.7365722656</ele>
        <time>2013-05-25T09:37:39Z</time>
      </trkpt>
      <trkpt lat="45.15082" lon="2.51852">
        <ele>1078.7365722656</ele>
        <time>2013-05-25T09:37:46Z</time>
      </trkpt>
      <trkpt lat="45.15084" lon="2.5185">
        <ele>1077.7751464844</ele>
        <time>2013-05-25T09:37:50Z</time>
      </trkpt>
      <trkpt lat="45.15093" lon="2.51846">
        <ele>1078.255859375</ele>
        <time>2013-05-25T09:37:55Z</time>
      </trkpt>
      <trkpt lat="45.15098" lon="2.51838">
        <ele>1078.255859375</ele>
        <time>2013-05-25T09:38:03Z</time>
      </trkpt>
      <trkpt lat="45.15103" lon="2.51833">
        <ele>1077.7751464844</ele>
        <time>2013-05-25T09:38:08Z</time>
      </trkpt>
      <trkpt lat="45.15106" lon="2.51832">
        <ele>1077.7751464844</ele>
        <time>2013-05-25T09:38:11Z</time>
      </trkpt>
      <trkpt lat="45.15112" lon="2.5183">
        <ele>1078.255859375</ele>
        <time>2013-05-25T09:38:16Z</time>
      </trkpt>
      <trkpt lat="45.15118" lon="2.51823">
        <ele>1078.255859375</ele>
        <time>2013-05-25T09:38:25Z</time>
      </trkpt>
      <trkpt lat="45.15123" lon="2.51817">
        <ele>1078.255859375</ele>
        <time>2013-05-25T09:38:37Z</time>
      </trkpt>
      <trkpt lat="45.1512" lon="2.51814">
        <ele>1078.7365722656</ele>
        <time>2013-05-25T09:39:08Z</time>
      </trkpt>
      <trkpt lat="45.15119" lon="2.51812">
        <ele>1078.7365722656</ele>
        <time>2013-05-25T09:39:22Z</time>
      </trkpt>
      <trkpt lat="45.15117" lon="2.51812">
        <ele>1078.255859375</ele>
        <time>2013-05-25T09:39:30Z</time>
      </trkpt>
      <trkpt lat="45.15113" lon="2.51807">
        <ele>1078.255859375</ele>
        <time>2013-05-25T09:39:37Z</time>
      </trkpt>
      <trkpt lat="45.1511" lon="2.51801">
        <ele>1077.7751464844</ele>
        <time>2013-05-25T09:39:41Z</time>
      </trkpt>
      <trkpt lat="45.15107" lon="2.51791">
        <ele>1077.7751464844</ele>
        <time>2013-05-25T09:39:48Z</time>
      </trkpt>
      <trkpt lat="45.15104" lon="2.5178">
        <ele>1076.8139648438</ele>
        <time>2013-05-25T09:39:56Z</time>
      </trkpt>
      <trkpt lat="45.151" lon="2.5177">
        <ele>1076.3332519531</ele>
        <time>2013-05-25T09:40:03Z</time>
      </trkpt>
      <trkpt lat="45.15094" lon="2.51749">
        <ele>1074.8913574219</ele>
        <time>2013-05-25T09:40:17Z</time>
      </trkpt>
      <trkpt lat="45.15093" lon="2.51747">
        <ele>1074.8913574219</ele>
        <time>2013-05-25T09:40:18Z</time>
      </trkpt>
      <trkpt lat="45.1509" lon="2.51729">
        <ele>1073.4494628906</ele>
        <time>2013-05-25T09:40:30Z</time>
      </trkpt>
      <trkpt lat="45.15085" lon="2.51705">
        <ele>1071.5266113281</ele>
        <time>2013-05-25T09:40:44Z</time>
      </trkpt>
      <trkpt lat="45.15081" lon="2.51695">
        <ele>1070.5654296875</ele>
        <time>2013-05-25T09:40:50Z</time>
      </trkpt>
      <trkpt lat="45.15074" lon="2.51674">
        <ele>1069.6042480469</ele>
        <time>2013-05-25T09:41:04Z</time>
      </trkpt>
      <trkpt lat="45.15068" lon="2.51658">
        <ele>1067.6811523438</ele>
        <time>2013-05-25T09:41:12Z</time>
      </trkpt>
      <trkpt lat="45.15058" lon="2.51637">
        <ele>1065.7587890625</ele>
        <time>2013-05-25T09:41:25Z</time>
      </trkpt>
      <trkpt lat="45.15053" lon="2.51621">
        <ele>1064.3166503906</ele>
        <time>2013-05-25T09:41:36Z</time>
      </trkpt>
      <trkpt lat="45.15043" lon="2.51596">
        <ele>1062.3940429688</ele>
        <time>2013-05-25T09:41:50Z</time>
      </trkpt>
      <trkpt lat="45.15041" lon="2.5159">
        <ele>1062.8747558594</ele>
        <time>2013-05-25T09:41:54Z</time>
      </trkpt>
      <trkpt lat="45.15038" lon="2.51584">
        <ele>1061.9135742188</ele>
        <time>2013-05-25T09:41:58Z</time>
      </trkpt>
      <trkpt lat="45.15028" lon="2.5157">
        <ele>1060.4714355469</ele>
        <time>2013-05-25T09:42:07Z</time>
      </trkpt>
      <trkpt lat="45.15022" lon="2.5156">
        <ele>1059.5102539062</ele>
        <time>2013-05-25T09:42:14Z</time>
      </trkpt>
      <trkpt lat="45.1502" lon="2.51557">
        <ele>1059.0295410156</ele>
        <time>2013-05-25T09:42:17Z</time>
      </trkpt>
      <trkpt lat="45.15018" lon="2.51549">
        <ele>1058.548828125</ele>
        <time>2013-05-25T09:42:21Z</time>
      </trkpt>
      <trkpt lat="45.15011" lon="2.51536">
        <ele>1057.1069335938</ele>
        <time>2013-05-25T09:42:30Z</time>
      </trkpt>
      <trkpt lat="45.15005" lon="2.51521">
        <ele>1055.6650390625</ele>
        <time>2013-05-25T09:42:40Z</time>
      </trkpt>
      <trkpt lat="45.14993" lon="2.51502">
        <ele>1054.2231445312</ele>
        <time>2013-05-25T09:42:52Z</time>
      </trkpt>
      <trkpt lat="45.1499" lon="2.51499">
        <ele>1053.7424316406</ele>
        <time>2013-05-25T09:42:57Z</time>
      </trkpt>
      <trkpt lat="45.14987" lon="2.51491">
        <ele>1053.26171875</ele>
        <time>2013-05-25T09:43:04Z</time>
      </trkpt>
      <trkpt lat="45.14986" lon="2.51481">
        <ele>1053.7424316406</ele>
        <time>2013-05-25T09:43:09Z</time>
      </trkpt>
      <trkpt lat="45.14976" lon="2.5145">
        <ele>1051.3388671875</ele>
        <time>2013-05-25T09:43:29Z</time>
      </trkpt>
      <trkpt lat="45.14976" lon="2.51449">
        <ele>1051.3388671875</ele>
        <time>2013-05-25T09:43:30Z</time>
      </trkpt>
      <trkpt lat="45.14967" lon="2.51428">
        <ele>1049.8969726562</ele>
        <time>2013-05-25T09:43:44Z</time>
      </trkpt>
      <trkpt lat="45.14962" lon="2.51419">
        <ele>1049.4162597656</ele>
        <time>2013-05-25T09:43:50Z</time>
      </trkpt>
      <trkpt lat="45.1496" lon="2.51412">
        <ele>1049.4162597656</ele>
        <time>2013-05-25T09:43:55Z</time>
      </trkpt>
      <trkpt lat="45.1496" lon="2.51409">
        <ele>1048.935546875</ele>
        <time>2013-05-25T09:43:57Z</time>
      </trkpt>
      <trkpt lat="45.14958" lon="2.51401">
        <ele>1048.935546875</ele>
        <time>2013-05-25T09:44:01Z</time>
      </trkpt>
      <trkpt lat="45.14954" lon="2.51393">
        <ele>1048.935546875</ele>
        <time>2013-05-25T09:44:07Z</time>
      </trkpt>
      <trkpt lat="45.1495" lon="2.5138">
        <ele>1047.9743652344</ele>
        <time>2013-05-25T09:44:14Z</time>
      </trkpt>
      <trkpt lat="45.14945" lon="2.51365">
        <ele>1048.4548339844</ele>
        <time>2013-05-25T09:44:26Z</time>
      </trkpt>
      <trkpt lat="45.14946" lon="2.51361">
        <ele>1047.4936523438</ele>
        <time>2013-05-25T09:44:29Z</time>
      </trkpt>
      <trkpt lat="45.14941" lon="2.51354">
        <ele>1047.4936523438</ele>
        <time>2013-05-25T09:44:35Z</time>
      </trkpt>
      <trkpt lat="45.14941" lon="2.51346">
        <ele>1047.0129394531</ele>
        <time>2013-05-25T09:44:39Z</time>
      </trkpt>
      <trkpt lat="45.14939" lon="2.51337">
        <ele>1047.0129394531</ele>
        <time>2013-05-25T09:44:43Z</time>
      </trkpt>
      <trkpt lat="45.14937" lon="2.51329">
        <ele>1047.0129394531</ele>
        <time>2013-05-25T09:44:49Z</time>
      </trkpt>
      <trkpt lat="45.14933" lon="2.51308">
        <ele>1046.5324707031</ele>
        <time>2013-05-25T09:45:01Z</time>
      </trkpt>
      <trkpt lat="45.14935" lon="2.51288">
        <ele>1046.5324707031</ele>
        <time>2013-05-25T09:45:14Z</time>
      </trkpt>
      <trkpt lat="45.14927" lon="2.51266">
        <ele>1045.0903320312</ele>
        <time>2013-05-25T09:45:26Z</time>
      </trkpt>
      <trkpt lat="45.1493" lon="2.51262">
        <ele>1044.6096191406</ele>
        <time>2013-05-25T09:45:31Z</time>
      </trkpt>
      <trkpt lat="45.1493" lon="2.51259">
        <ele>1044.1291503906</ele>
        <time>2013-05-25T09:45:33Z</time>
      </trkpt>
      <trkpt lat="45.14928" lon="2.51243">
        <ele>1043.1677246094</ele>
        <time>2013-05-25T09:45:44Z</time>
      </trkpt>
      <trkpt lat="45.14925" lon="2.51221">
        <ele>1042.6872558594</ele>
        <time>2013-05-25T09:45:56Z</time>
      </trkpt>
      <trkpt lat="45.14926" lon="2.51221">
        <ele>1042.6872558594</ele>
        <time>2013-05-25T09:45:57Z</time>
      </trkpt>
      <trkpt lat="45.14925" lon="2.51208">
        <ele>1042.2065429688</ele>
        <time>2013-05-25T09:46:05Z</time>
      </trkpt>
      <trkpt lat="45.14923" lon="2.51202">
        <ele>1041.7258300781</ele>
        <time>2013-05-25T09:46:08Z</time>
      </trkpt>
      <trkpt lat="45.14919" lon="2.51194">
        <ele>1041.7258300781</ele>
        <time>2013-05-25T09:46:16Z</time>
      </trkpt>
      <trkpt lat="45.14912" lon="2.51171">
        <ele>1041.2451171875</ele>
        <time>2013-05-25T09:46:31Z</time>
      </trkpt>
      <trkpt lat="45.14908" lon="2.51151">
        <ele>1040.7644042969</ele>
        <time>2013-05-25T09:46:44Z</time>
      </trkpt>
      <trkpt lat="45.14904" lon="2.51144">
        <ele>1039.8032226562</ele>
        <time>2013-05-25T09:46:50Z</time>
      </trkpt>
      <trkpt lat="45.14898" lon="2.51137">
        <ele>1038.8420410156</ele>
        <time>2013-05-25T09:46:58Z</time>
      </trkpt>
      <trkpt lat="45.14895" lon="2.51129">
        <ele>1038.8420410156</ele>
        <time>2013-05-25T09:47:03Z</time>
      </trkpt>
      <trkpt lat="45.14895" lon="2.5112">
        <ele>1039.8032226562</ele>
        <time>2013-05-25T09:47:07Z</time>
      </trkpt>
      <trkpt lat="45.14895" lon="2.51104">
        <ele>1038.8420410156</ele>
        <time>2013-05-25T09:47:18Z</time>
      </trkpt>
      <trkpt lat="45.14887" lon="2.5108">
        <ele>1038.8420410156</ele>
        <time>2013-05-25T09:47:34Z</time>
      </trkpt>
      <trkpt lat="45.14886" lon="2.51068">
        <ele>1038.361328125</ele>
        <time>2013-05-25T09:47:42Z</time>
      </trkpt>
      <trkpt lat="45.14884" lon="2.51041">
        <ele>1038.361328125</ele>
        <time>2013-05-25T09:47:57Z</time>
      </trkpt>
      <trkpt lat="45.14878" lon="2.51034">
        <ele>1037.3999023438</ele>
        <time>2013-05-25T09:48:00Z</time>
      </trkpt>
      <trkpt lat="45.14867" lon="2.51012">
        <ele>1037.8806152344</ele>
        <time>2013-05-25T09:48:12Z</time>
      </trkpt>
      <trkpt lat="45.14867" lon="2.51011">
        <ele>1037.8806152344</ele>
        <time>2013-05-25T09:48:13Z</time>
      </trkpt>
      <trkpt lat="45.14864" lon="2.51006">
        <ele>1036.9191894531</ele>
        <time>2013-05-25T09:48:17Z</time>
      </trkpt>
      <trkpt lat="45.14859" lon="2.50995">
        <ele>1037.3999023438</ele>
        <time>2013-05-25T09:48:27Z</time>
      </trkpt>
      <trkpt lat="45.14853" lon="2.5098">
        <ele>1035.9577636719</ele>
        <time>2013-05-25T09:48:40Z</time>
      </trkpt>
      <trkpt lat="45.14849" lon="2.50968">
        <ele>1035.4770507812</ele>
        <time>2013-05-25T09:48:49Z</time>
      </trkpt>
      <trkpt lat="45.1485" lon="2.50965">
        <ele>1034.9965820312</ele>
        <time>2013-05-25T09:48:51Z</time>
      </trkpt>
      <trkpt lat="45.14852" lon="2.50961">
        <ele>1035.4770507812</ele>
        <time>2013-05-25T09:48:55Z</time>
      </trkpt>
      <trkpt lat="45.14849" lon="2.50951">
        <ele>1034.5158691406</ele>
        <time>2013-05-25T09:49:01Z</time>
      </trkpt>
      <trkpt lat="45.14833" lon="2.50932">
        <ele>1034.03515625</ele>
        <time>2013-05-25T09:49:13Z</time>
      </trkpt>
      <trkpt lat="45.14831" lon="2.50923">
        <ele>1032.5932617188</ele>
        <time>2013-05-25T09:49:22Z</time>
      </trkpt>
      <trkpt lat="45.14823" lon="2.50892">
        <ele>1032.5932617188</ele>
        <time>2013-05-25T09:49:36Z</time>
      </trkpt>
      <trkpt lat="45.14817" lon="2.50874">
        <ele>1030.6706542969</ele>
        <time>2013-05-25T09:49:48Z</time>
      </trkpt>
      <trkpt lat="45.14812" lon="2.50863">
        <ele>1030.6706542969</ele>
        <time>2013-05-25T09:49:58Z</time>
      </trkpt>
      <trkpt lat="45.14811" lon="2.50858">
        <ele>1031.1513671875</ele>
        <time>2013-05-25T09:50:02Z</time>
      </trkpt>
      <trkpt lat="45.14807" lon="2.5083">
        <ele>1027.7866210938</ele>
        <time>2013-05-25T09:50:20Z</time>
      </trkpt>
      <trkpt lat="45.14806" lon="2.50823">
        <ele>1025.8640136719</ele>
        <time>2013-05-25T09:50:25Z</time>
      </trkpt>
      <trkpt lat="45.14806" lon="2.50819">
        <ele>1025.3833007812</ele>
        <time>2013-05-25T09:50:28Z</time>
      </trkpt>
      <trkpt lat="45.14804" lon="2.50807">
        <ele>1023.94140625</ele>
        <time>2013-05-25T09:50:36Z</time>
      </trkpt>
      <trkpt lat="45.14803" lon="2.50804">
        <ele>1023.4609375</ele>
        <time>2013-05-25T09:50:38Z</time>
      </trkpt>
      <trkpt lat="45.1479" lon="2.50786">
        <ele>1021.0576171875</ele>
        <time>2013-05-25T09:50:49Z</time>
      </trkpt>
      <trkpt lat="45.14783" lon="2.50778">
        <ele>1020.5769042969</ele>
        <time>2013-05-25T09:50:55Z</time>
      </trkpt>
      <trkpt lat="45.14783" lon="2.50773">
        <ele>1021.0576171875</ele>
        <time>2013-05-25T09:50:58Z</time>
      </trkpt>
      <trkpt lat="45.14783" lon="2.50769">
        <ele>1019.6154785156</ele>
        <time>2013-05-25T09:51:00Z</time>
      </trkpt>
      <trkpt lat="45.14779" lon="2.50758">
        <ele>1019.134765625</ele>
        <time>2013-05-25T09:51:09Z</time>
      </trkpt>
      <trkpt lat="45.14777" lon="2.50753">
        <ele>1018.1733398438</ele>
        <time>2013-05-25T09:51:12Z</time>
      </trkpt>
      <trkpt lat="45.14778" lon="2.50743">
        <ele>1017.2121582031</ele>
        <time>2013-05-25T09:51:18Z</time>
      </trkpt>
      <trkpt lat="45.1478" lon="2.50735">
        <ele>1016.2507324219</ele>
        <time>2013-05-25T09:51:23Z</time>
      </trkpt>
      <trkpt lat="45.1478" lon="2.5073">
        <ele>1017.2121582031</ele>
        <time>2013-05-25T09:51:26Z</time>
      </trkpt>
      <trkpt lat="45.14773" lon="2.50706">
        <ele>1016.7314453125</ele>
        <time>2013-05-25T09:51:39Z</time>
      </trkpt>
      <trkpt lat="45.14773" lon="2.50701">
        <ele>1015.7702636719</ele>
        <time>2013-05-25T09:51:42Z</time>
      </trkpt>
      <trkpt lat="45.14775" lon="2.5069">
        <ele>1015.7702636719</ele>
        <time>2013-05-25T09:51:49Z</time>
      </trkpt>
      <trkpt lat="45.14775" lon="2.50668">
        <ele>1014.8088378906</ele>
        <time>2013-05-25T09:51:59Z</time>
      </trkpt>
      <trkpt lat="45.14774" lon="2.50643">
        <ele>1013.3669433594</ele>
        <time>2013-05-25T09:52:12Z</time>
      </trkpt>
      <trkpt lat="45.14773" lon="2.50638">
        <ele>1014.328125</ele>
        <time>2013-05-25T09:52:14Z</time>
      </trkpt>
      <trkpt lat="45.14769" lon="2.50611">
        <ele>1012.8862304688</ele>
        <time>2013-05-25T09:52:27Z</time>
      </trkpt>
      <trkpt lat="45.14772" lon="2.50583">
        <ele>1012.8862304688</ele>
        <time>2013-05-25T09:52:42Z</time>
      </trkpt>
      <trkpt lat="45.14773" lon="2.50576">
        <ele>1012.8862304688</ele>
        <time>2013-05-25T09:52:45Z</time>
      </trkpt>
      <trkpt lat="45.14769" lon="2.50573">
        <ele>1013.3669433594</ele>
        <time>2013-05-25T09:52:47Z</time>
      </trkpt>
      <trkpt lat="45.14768" lon="2.50567">
        <ele>1012.8862304688</ele>
        <time>2013-05-25T09:52:51Z</time>
      </trkpt>
      <trkpt lat="45.1477" lon="2.50558">
        <ele>1012.8862304688</ele>
        <time>2013-05-25T09:52:56Z</time>
      </trkpt>
      <trkpt lat="45.1477" lon="2.50537">
        <ele>1013.3669433594</ele>
        <time>2013-05-25T09:53:08Z</time>
      </trkpt>
      <trkpt lat="45.14769" lon="2.50533">
        <ele>1012.8862304688</ele>
        <time>2013-05-25T09:53:10Z</time>
      </trkpt>
      <trkpt lat="45.14768" lon="2.50523">
        <ele>1013.8474121094</ele>
        <time>2013-05-25T09:53:16Z</time>
      </trkpt>
      <trkpt lat="45.14769" lon="2.50512">
        <ele>1013.3669433594</ele>
        <time>2013-05-25T09:53:20Z</time>
      </trkpt>
      <trkpt lat="45.14766" lon="2.50491">
        <ele>1013.8474121094</ele>
        <time>2013-05-25T09:53:32Z</time>
      </trkpt>
      <trkpt lat="45.14761" lon="2.50458">
        <ele>1013.3669433594</ele>
        <time>2013-05-25T09:53:49Z</time>
      </trkpt>
      <trkpt lat="45.14758" lon="2.50449">
        <ele>1013.3669433594</ele>
        <time>2013-05-25T09:53:54Z</time>
      </trkpt>
      <trkpt lat="45.14759" lon="2.50447">
        <ele>1013.3669433594</ele>
        <time>2013-05-25T09:53:56Z</time>
      </trkpt>
      <trkpt lat="45.14757" lon="2.50436">
        <ele>1012.8862304688</ele>
        <time>2013-05-25T09:54:03Z</time>
      </trkpt>
      <trkpt lat="45.14753" lon="2.50407">
        <ele>1012.8862304688</ele>
        <time>2013-05-25T09:54:19Z</time>
      </trkpt>
      <trkpt lat="45.14751" lon="2.50404">
        <ele>1012.4055175781</ele>
        <time>2013-05-25T09:54:21Z</time>
      </trkpt>
      <trkpt lat="45.14752" lon="2.50394">
        <ele>1011.9250488281</ele>
        <time>2013-05-25T09:54:25Z</time>
      </trkpt>
      <trkpt lat="45.14753" lon="2.50379">
        <ele>1011.4443359375</ele>
        <time>2013-05-25T09:54:33Z</time>
      </trkpt>
      <trkpt lat="45.14752" lon="2.50373">
        <ele>1010.4829101562</ele>
        <time>2013-05-25T09:54:36Z</time>
      </trkpt>
      <trkpt lat="45.14752" lon="2.5037">
        <ele>1010.9636230469</ele>
        <time>2013-05-25T09:54:38Z</time>
      </trkpt>
      <trkpt lat="45.14746" lon="2.5034">
        <ele>1009.5217285156</ele>
        <time>2013-05-25T09:54:53Z</time>
      </trkpt>
      <trkpt lat="45.14745" lon="2.50331">
        <ele>1009.041015625</ele>
        <time>2013-05-25T09:54:58Z</time>
      </trkpt>
      <trkpt lat="45.14742" lon="2.50318">
        <ele>1008.5603027344</ele>
        <time>2013-05-25T09:55:05Z</time>
      </trkpt>
      <trkpt lat="45.1474" lon="2.50287">
        <ele>1008.0798339844</ele>
        <time>2013-05-25T09:55:24Z</time>
      </trkpt>
      <trkpt lat="45.14735" lon="2.50275">
        <ele>1007.5991210938</ele>
        <time>2013-05-25T09:55:30Z</time>
      </trkpt>
      <trkpt lat="45.14731" lon="2.50267">
        <ele>1006.6376953125</ele>
        <time>2013-05-25T09:55:35Z</time>
      </trkpt>
      <trkpt lat="45.14728" lon="2.5026">
        <ele>1007.1184082031</ele>
        <time>2013-05-25T09:55:38Z</time>
      </trkpt>
      <trkpt lat="45.14725" lon="2.5025">
        <ele>1007.1184082031</ele>
        <time>2013-05-25T09:55:42Z</time>
      </trkpt>
      <trkpt lat="45.14717" lon="2.50237">
        <ele>1007.1184082031</ele>
        <time>2013-05-25T09:55:49Z</time>
      </trkpt>
      <trkpt lat="45.14717" lon="2.50234">
        <ele>1006.6376953125</ele>
        <time>2013-05-25T09:55:51Z</time>
      </trkpt>
      <trkpt lat="45.14706" lon="2.50207">
        <ele>1003.7536621094</ele>
        <time>2013-05-25T09:56:07Z</time>
      </trkpt>
      <trkpt lat="45.147" lon="2.50192">
        <ele>1002.3115234375</ele>
        <time>2013-05-25T09:56:16Z</time>
      </trkpt>
      <trkpt lat="45.14696" lon="2.50175">
        <ele>1001.8310546875</ele>
        <time>2013-05-25T09:56:24Z</time>
      </trkpt>
      <trkpt lat="45.14696" lon="2.50167">
        <ele>1000.8696289062</ele>
        <time>2013-05-25T09:56:29Z</time>
      </trkpt>
      <trkpt lat="45.14691" lon="2.50148">
        <ele>999.427734375</ele>
        <time>2013-05-25T09:56:39Z</time>
      </trkpt>
      <trkpt lat="45.14693" lon="2.50119">
        <ele>997.50512695312</ele>
        <time>2013-05-25T09:56:54Z</time>
      </trkpt>
      <trkpt lat="45.14694" lon="2.50113">
        <ele>997.50512695312</ele>
        <time>2013-05-25T09:56:57Z</time>
      </trkpt>
      <trkpt lat="45.14694" lon="2.50093">
        <ele>997.0244140625</ele>
        <time>2013-05-25T09:57:07Z</time>
      </trkpt>
      <trkpt lat="45.14694" lon="2.50087">
        <ele>996.06323242188</ele>
        <time>2013-05-25T09:57:10Z</time>
      </trkpt>
      <trkpt lat="45.14693" lon="2.50061">
        <ele>994.140625</ele>
        <time>2013-05-25T09:57:23Z</time>
      </trkpt>
      <trkpt lat="45.14686" lon="2.50055">
        <ele>993.65991210938</ele>
        <time>2013-05-25T09:57:29Z</time>
      </trkpt>
      <trkpt lat="45.14686" lon="2.50048">
        <ele>993.17919921875</ele>
        <time>2013-05-25T09:57:32Z</time>
      </trkpt>
      <trkpt lat="45.14681" lon="2.50012">
        <ele>989.81469726562</ele>
        <time>2013-05-25T09:57:48Z</time>
      </trkpt>
      <trkpt lat="45.14673" lon="2.4999">
        <ele>987.89184570312</ele>
        <time>2013-05-25T09:57:59Z</time>
      </trkpt>
      <trkpt lat="45.1467" lon="2.49963">
        <ele>985.00805664062</ele>
        <time>2013-05-25T09:58:13Z</time>
      </trkpt>
      <trkpt lat="45.1467" lon="2.49946">
        <ele>984.52734375</ele>
        <time>2013-05-25T09:58:20Z</time>
      </trkpt>
      <trkpt lat="45.14677" lon="2.49938">
        <ele>984.04663085938</ele>
        <time>2013-05-25T09:58:30Z</time>
      </trkpt>
      <trkpt lat="45.1468" lon="2.49941">
        <ele>984.52734375</ele>
        <time>2013-05-25T09:58:33Z</time>
      </trkpt>
      <trkpt lat="45.14692" lon="2.49943">
        <ele>984.52734375</ele>
        <time>2013-05-25T09:58:42Z</time>
      </trkpt>
      <trkpt lat="45.14706" lon="2.49924">
        <ele>983.56591796875</ele>
        <time>2013-05-25T09:58:57Z</time>
      </trkpt>
      <trkpt lat="45.14719" lon="2.49906">
        <ele>983.56591796875</ele>
        <time>2013-05-25T09:59:11Z</time>
      </trkpt>
      <trkpt lat="45.14725" lon="2.49897">
        <ele>983.56591796875</ele>
        <time>2013-05-25T09:59:17Z</time>
      </trkpt>
      <trkpt lat="45.14729" lon="2.49888">
        <ele>982.1240234375</ele>
        <time>2013-05-25T09:59:24Z</time>
      </trkpt>
      <trkpt lat="45.1474" lon="2.4988">
        <ele>981.64331054688</ele>
        <time>2013-05-25T09:59:33Z</time>
      </trkpt>
      <trkpt lat="45.14741" lon="2.49875">
        <ele>981.64331054688</ele>
        <time>2013-05-25T09:59:37Z</time>
      </trkpt>
      <trkpt lat="45.14745" lon="2.49858">
        <ele>980.20141601562</ele>
        <time>2013-05-25T09:59:52Z</time>
      </trkpt>
      <trkpt lat="45.14747" lon="2.49852">
        <ele>980.20141601562</ele>
        <time>2013-05-25T10:00:05Z</time>
      </trkpt>
      <trkpt lat="45.14747" lon="2.49852">
        <ele>979.23999023438</ele>
        <time>2013-05-25T10:00:07Z</time>
      </trkpt>
      <trkpt lat="45.14744" lon="2.49854">
        <ele>980.20141601562</ele>
        <time>2013-05-25T10:00:41Z</time>
      </trkpt>
      <trkpt lat="45.14748" lon="2.49846">
        <ele>979.720703125</ele>
        <time>2013-05-25T10:01:27Z</time>
      </trkpt>
      <trkpt lat="45.14748" lon="2.49849">
        <ele>979.720703125</ele>
        <time>2013-05-25T10:01:51Z</time>
      </trkpt>
      <trkpt lat="45.14756" lon="2.49853">
        <ele>979.720703125</ele>
        <time>2013-05-25T10:02:10Z</time>
      </trkpt>
      <trkpt lat="45.14762" lon="2.49852">
        <ele>979.720703125</ele>
        <time>2013-05-25T10:02:14Z</time>
      </trkpt>
      <trkpt lat="45.14764" lon="2.49857">
        <ele>979.720703125</ele>
        <time>2013-05-25T10:02:29Z</time>
      </trkpt>
      <trkpt lat="45.1475" lon="2.49849">
        <ele>979.23999023438</ele>
        <time>2013-05-25T10:03:31Z</time>
      </trkpt>
      <trkpt lat="45.1475" lon="2.49844">
        <ele>979.23999023438</ele>
        <time>2013-05-25T10:03:46Z</time>
      </trkpt>
      <trkpt lat="45.14741" lon="2.49845">
        <ele>979.23999023438</ele>
        <time>2013-05-25T10:03:51Z</time>
      </trkpt>
      <trkpt lat="45.14738" lon="2.49839">
        <ele>979.23999023438</ele>
        <time>2013-05-25T10:03:56Z</time>
      </trkpt>
      <trkpt lat="45.14731" lon="2.49815">
        <ele>978.27880859375</ele>
        <time>2013-05-25T10:04:12Z</time>
      </trkpt>
      <trkpt lat="45.14726" lon="2.49799">
        <ele>976.8369140625</ele>
        <time>2013-05-25T10:04:22Z</time>
      </trkpt>
      <trkpt lat="45.1472" lon="2.49781">
        <ele>974.91430664062</ele>
        <time>2013-05-25T10:04:33Z</time>
      </trkpt>
      <trkpt lat="45.14717" lon="2.49776">
        <ele>974.91430664062</ele>
        <time>2013-05-25T10:04:37Z</time>
      </trkpt>
      <trkpt lat="45.14717" lon="2.49769">
        <ele>974.91430664062</ele>
        <time>2013-05-25T10:04:40Z</time>
      </trkpt>
      <trkpt lat="45.14717" lon="2.49759">
        <ele>973.47241210938</ele>
        <time>2013-05-25T10:04:45Z</time>
      </trkpt>
      <trkpt lat="45.14712" lon="2.49746">
        <ele>972.99169921875</ele>
        <time>2013-05-25T10:04:52Z</time>
      </trkpt>
      <trkpt lat="45.14702" lon="2.49735">
        <ele>972.0302734375</ele>
        <time>2013-05-25T10:05:01Z</time>
      </trkpt>
      <trkpt lat="45.14697" lon="2.49731">
        <ele>972.0302734375</ele>
        <time>2013-05-25T10:05:05Z</time>
      </trkpt>
      <trkpt lat="45.14689" lon="2.49727">
        <ele>972.0302734375</ele>
        <time>2013-05-25T10:05:11Z</time>
      </trkpt>
      <trkpt lat="45.14682" lon="2.49725">
        <ele>972.0302734375</ele>
        <time>2013-05-25T10:05:21Z</time>
      </trkpt>
      <trkpt lat="45.14668" lon="2.49722">
        <ele>972.99169921875</ele>
        <time>2013-05-25T10:05:31Z</time>
      </trkpt>
      <trkpt lat="45.14665" lon="2.49721">
        <ele>971.54931640625</ele>
        <time>2013-05-25T10:05:33Z</time>
      </trkpt>
      <trkpt lat="45.1466" lon="2.49712">
        <ele>972.51098632812</ele>
        <time>2013-05-25T10:05:41Z</time>
      </trkpt>
      <trkpt lat="45.14662" lon="2.49711">
        <ele>972.0302734375</ele>
        <time>2013-05-25T10:05:43Z</time>
      </trkpt>
      <trkpt lat="45.14657" lon="2.49716">
        <ele>972.0302734375</ele>
        <time>2013-05-25T10:05:54Z</time>
      </trkpt>
      <trkpt lat="45.14653" lon="2.49717">
        <ele>972.0302734375</ele>
        <time>2013-05-25T10:05:57Z</time>
      </trkpt>
      <trkpt lat="45.14648" lon="2.4971">
        <ele>971.54931640625</ele>
        <time>2013-05-25T10:06:02Z</time>
      </trkpt>
      <trkpt lat="45.1464" lon="2.49702">
        <ele>971.54931640625</ele>
        <time>2013-05-25T10:06:12Z</time>
      </trkpt>
      <trkpt lat="45.1464" lon="2.49697">
        <ele>971.06884765625</ele>
        <time>2013-05-25T10:06:14Z</time>
      </trkpt>
      <trkpt lat="45.1464" lon="2.49671">
        <ele>970.107421875</ele>
        <time>2013-05-25T10:06:28Z</time>
      </trkpt>
      <trkpt lat="45.14635" lon="2.4966">
        <ele>968.66552734375</ele>
        <time>2013-05-25T10:06:38Z</time>
      </trkpt>
      <trkpt lat="45.14634" lon="2.49647">
        <ele>967.7041015625</ele>
        <time>2013-05-25T10:06:49Z</time>
      </trkpt>
      <trkpt lat="45.14632" lon="2.4964">
        <ele>968.18481445312</ele>
        <time>2013-05-25T10:06:53Z</time>
      </trkpt>
      <trkpt lat="45.14631" lon="2.49638">
        <ele>968.18481445312</ele>
        <time>2013-05-25T10:06:55Z</time>
      </trkpt>
      <trkpt lat="45.14629" lon="2.49635">
        <ele>967.7041015625</ele>
        <time>2013-05-25T10:06:57Z</time>
      </trkpt>
      <trkpt lat="45.14629" lon="2.49625">
        <ele>968.18481445312</ele>
        <time>2013-05-25T10:07:04Z</time>
      </trkpt>
      <trkpt lat="45.14624" lon="2.49612">
        <ele>967.7041015625</ele>
        <time>2013-05-25T10:07:10Z</time>
      </trkpt>
      <trkpt lat="45.14621" lon="2.49604">
        <ele>967.7041015625</ele>
        <time>2013-05-25T10:07:16Z</time>
      </trkpt>
      <trkpt lat="45.14619" lon="2.49599">
        <ele>967.7041015625</ele>
        <time>2013-05-25T10:07:20Z</time>
      </trkpt>
      <trkpt lat="45.14614" lon="2.49592">
        <ele>966.26220703125</ele>
        <time>2013-05-25T10:07:25Z</time>
      </trkpt>
      <trkpt lat="45.14606" lon="2.49581">
        <ele>965.78173828125</ele>
        <time>2013-05-25T10:07:35Z</time>
      </trkpt>
      <trkpt lat="45.14605" lon="2.49578">
        <ele>966.26220703125</ele>
        <time>2013-05-25T10:07:37Z</time>
      </trkpt>
      <trkpt lat="45.14602" lon="2.49575">
        <ele>965.78173828125</ele>
        <time>2013-05-25T10:07:40Z</time>
      </trkpt>
      <trkpt lat="45.14595" lon="2.49569">
        <ele>965.78173828125</ele>
        <time>2013-05-25T10:07:49Z</time>
      </trkpt>
      <trkpt lat="45.14592" lon="2.49569">
        <ele>965.78173828125</ele>
        <time>2013-05-25T10:07:53Z</time>
      </trkpt>
      <trkpt lat="45.1459" lon="2.49565">
        <ele>965.78173828125</ele>
        <time>2013-05-25T10:07:57Z</time>
      </trkpt>
      <trkpt lat="45.14582" lon="2.49558">
        <ele>965.30102539062</ele>
        <time>2013-05-25T10:08:10Z</time>
      </trkpt>
      <trkpt lat="45.14569" lon="2.49551">
        <ele>964.8203125</ele>
        <time>2013-05-25T10:08:22Z</time>
      </trkpt>
      <trkpt lat="45.14566" lon="2.49548">
        <ele>965.78173828125</ele>
        <time>2013-05-25T10:08:26Z</time>
      </trkpt>
      <trkpt lat="45.1456" lon="2.49546">
        <ele>965.30102539062</ele>
        <time>2013-05-25T10:08:31Z</time>
      </trkpt>
      <trkpt lat="45.14557" lon="2.49543">
        <ele>965.30102539062</ele>
        <time>2013-05-25T10:08:35Z</time>
      </trkpt>
      <trkpt lat="45.14549" lon="2.49539">
        <ele>966.26220703125</ele>
        <time>2013-05-25T10:08:43Z</time>
      </trkpt>
      <trkpt lat="45.14541" lon="2.49535">
        <ele>966.26220703125</ele>
        <time>2013-05-25T10:08:47Z</time>
      </trkpt>
      <trkpt lat="45.14541" lon="2.49533">
        <ele>966.26220703125</ele>
        <time>2013-05-25T10:08:49Z</time>
      </trkpt>
      <trkpt lat="45.14538" lon="2.49533">
        <ele>966.26220703125</ele>
        <time>2013-05-25T10:08:52Z</time>
      </trkpt>
      <trkpt lat="45.14534" lon="2.49531">
        <ele>966.26220703125</ele>
        <time>2013-05-25T10:08:56Z</time>
      </trkpt>
      <trkpt lat="45.14527" lon="2.49523">
        <ele>966.74291992188</ele>
        <time>2013-05-25T10:09:00Z</time>
      </trkpt>
      <trkpt lat="45.14521" lon="2.49517">
        <ele>966.26220703125</ele>
        <time>2013-05-25T10:09:06Z</time>
      </trkpt>
      <trkpt lat="45.14522" lon="2.4951">
        <ele>966.74291992188</ele>
        <time>2013-05-25T10:09:10Z</time>
      </trkpt>
      <trkpt lat="45.14518" lon="2.49508">
        <ele>966.74291992188</ele>
        <time>2013-05-25T10:09:13Z</time>
      </trkpt>
      <trkpt lat="45.14511" lon="2.49497">
        <ele>966.26220703125</ele>
        <time>2013-05-25T10:09:21Z</time>
      </trkpt>
      <trkpt lat="45.14509" lon="2.49495">
        <ele>966.26220703125</ele>
        <time>2013-05-25T10:09:25Z</time>
      </trkpt>
      <trkpt lat="45.14506" lon="2.49489">
        <ele>966.74291992188</ele>
        <time>2013-05-25T10:09:29Z</time>
      </trkpt>
      <trkpt lat="45.14503" lon="2.49488">
        <ele>966.74291992188</ele>
        <time>2013-05-25T10:09:31Z</time>
      </trkpt>
      <trkpt lat="45.14499" lon="2.49486">
        <ele>965.78173828125</ele>
        <time>2013-05-25T10:09:35Z</time>
      </trkpt>
      <trkpt lat="45.14496" lon="2.49484">
        <ele>965.78173828125</ele>
        <time>2013-05-25T10:09:38Z</time>
      </trkpt>
      <trkpt lat="45.14495" lon="2.4948">
        <ele>965.78173828125</ele>
        <time>2013-05-25T10:09:41Z</time>
      </trkpt>
      <trkpt lat="45.14481" lon="2.49471">
        <ele>964.8203125</ele>
        <time>2013-05-25T10:09:57Z</time>
      </trkpt>
      <trkpt lat="45.14476" lon="2.4947">
        <ele>964.8203125</ele>
        <time>2013-05-25T10:10:01Z</time>
      </trkpt>
      <trkpt lat="45.14472" lon="2.49466">
        <ele>964.33959960938</ele>
        <time>2013-05-25T10:10:07Z</time>
      </trkpt>
      <trkpt lat="45.14467" lon="2.49462">
        <ele>964.8203125</ele>
        <time>2013-05-25T10:10:10Z</time>
      </trkpt>
      <trkpt lat="45.14461" lon="2.49461">
        <ele>964.8203125</ele>
        <time>2013-05-25T10:10:14Z</time>
      </trkpt>
      <trkpt lat="45.14451" lon="2.4946">
        <ele>964.8203125</ele>
        <time>2013-05-25T10:10:24Z</time>
      </trkpt>
      <trkpt lat="45.14445" lon="2.4946">
        <ele>965.30102539062</ele>
        <time>2013-05-25T10:10:34Z</time>
      </trkpt>
      <trkpt lat="45.14437" lon="2.49462">
        <ele>964.8203125</ele>
        <time>2013-05-25T10:10:38Z</time>
      </trkpt>
      <trkpt lat="45.14433" lon="2.49459">
        <ele>964.8203125</ele>
        <time>2013-05-25T10:10:43Z</time>
      </trkpt>
      <trkpt lat="45.14421" lon="2.49452">
        <ele>966.26220703125</ele>
        <time>2013-05-25T10:10:57Z</time>
      </trkpt>
      <trkpt lat="45.14426" lon="2.49441">
        <ele>967.7041015625</ele>
        <time>2013-05-25T10:11:08Z</time>
      </trkpt>
      <trkpt lat="45.14427" lon="2.49432">
        <ele>968.18481445312</ele>
        <time>2013-05-25T10:11:10Z</time>
      </trkpt>
      <trkpt lat="45.14421" lon="2.49425">
        <ele>970.107421875</ele>
        <time>2013-05-25T10:11:18Z</time>
      </trkpt>
      <trkpt lat="45.14416" lon="2.49415">
        <ele>970.58813476562</ele>
        <time>2013-05-25T10:11:26Z</time>
      </trkpt>
      <trkpt lat="45.14415" lon="2.49386">
        <ele>973.95288085938</ele>
        <time>2013-05-25T10:11:40Z</time>
      </trkpt>
      <trkpt lat="45.14416" lon="2.49383">
        <ele>973.47241210938</ele>
        <time>2013-05-25T10:11:42Z</time>
      </trkpt>
      <trkpt lat="45.14415" lon="2.49379">
        <ele>973.95288085938</ele>
        <time>2013-05-25T10:11:45Z</time>
      </trkpt>
      <trkpt lat="45.14414" lon="2.49363">
        <ele>973.95288085938</ele>
        <time>2013-05-25T10:11:57Z</time>
      </trkpt>
      <trkpt lat="45.14413" lon="2.49363">
        <ele>974.43359375</ele>
        <time>2013-05-25T10:11:58Z</time>
      </trkpt>
      <trkpt lat="45.14416" lon="2.4936">
        <ele>973.47241210938</ele>
        <time>2013-05-25T10:12:01Z</time>
      </trkpt>
      <trkpt lat="45.14416" lon="2.49358">
        <ele>974.43359375</ele>
        <time>2013-05-25T10:12:03Z</time>
      </trkpt>
      <trkpt lat="45.14409" lon="2.49347">
        <ele>972.99169921875</ele>
        <time>2013-05-25T10:12:16Z</time>
      </trkpt>
      <trkpt lat="45.14406" lon="2.49343">
        <ele>972.0302734375</ele>
        <time>2013-05-25T10:12:20Z</time>
      </trkpt>
      <trkpt lat="45.14407" lon="2.4934">
        <ele>972.0302734375</ele>
        <time>2013-05-25T10:12:22Z</time>
      </trkpt>
      <trkpt lat="45.14405" lon="2.49334">
        <ele>971.54931640625</ele>
        <time>2013-05-25T10:12:25Z</time>
      </trkpt>
      <trkpt lat="45.14401" lon="2.49328">
        <ele>970.58813476562</ele>
        <time>2013-05-25T10:12:30Z</time>
      </trkpt>
      <trkpt lat="45.14398" lon="2.4932">
        <ele>970.107421875</ele>
        <time>2013-05-25T10:12:45Z</time>
      </trkpt>
      <trkpt lat="45.14394" lon="2.49319">
        <ele>969.626953125</ele>
        <time>2013-05-25T10:12:57Z</time>
      </trkpt>
      <trkpt lat="45.14394" lon="2.49319">
        <ele>969.14624023438</ele>
        <time>2013-05-25T10:13:33Z</time>
      </trkpt>
      <trkpt lat="45.14392" lon="2.49317">
        <ele>969.14624023438</ele>
        <time>2013-05-25T10:13:51Z</time>
      </trkpt>
      <trkpt lat="45.14389" lon="2.4931">
        <ele>970.107421875</ele>
        <time>2013-05-25T10:13:56Z</time>
      </trkpt>
      <trkpt lat="45.14386" lon="2.49299">
        <ele>968.66552734375</ele>
        <time>2013-05-25T10:14:03Z</time>
      </trkpt>
      <trkpt lat="45.14384" lon="2.49295">
        <ele>967.2236328125</ele>
        <time>2013-05-25T10:14:08Z</time>
      </trkpt>
      <trkpt lat="45.14384" lon="2.49294">
        <ele>968.18481445312</ele>
        <time>2013-05-25T10:14:09Z</time>
      </trkpt>
      <trkpt lat="45.14383" lon="2.49289">
        <ele>967.7041015625</ele>
        <time>2013-05-25T10:14:12Z</time>
      </trkpt>
      <trkpt lat="45.14384" lon="2.49286">
        <ele>968.18481445312</ele>
        <time>2013-05-25T10:14:15Z</time>
      </trkpt>
      <trkpt lat="45.14384" lon="2.49279">
        <ele>965.30102539062</ele>
        <time>2013-05-25T10:14:22Z</time>
      </trkpt>
      <trkpt lat="45.14384" lon="2.49273">
        <ele>966.74291992188</ele>
        <time>2013-05-25T10:14:29Z</time>
      </trkpt>
      <trkpt lat="45.14382" lon="2.49272">
        <ele>965.30102539062</ele>
        <time>2013-05-25T10:14:31Z</time>
      </trkpt>
      <trkpt lat="45.14377" lon="2.49266">
        <ele>964.8203125</ele>
        <time>2013-05-25T10:14:37Z</time>
      </trkpt>
      <trkpt lat="45.14373" lon="2.49262">
        <ele>965.30102539062</ele>
        <time>2013-05-25T10:14:40Z</time>
      </trkpt>
      <trkpt lat="45.14371" lon="2.49258">
        <ele>964.8203125</ele>
        <time>2013-05-25T10:14:44Z</time>
      </trkpt>
      <trkpt lat="45.14365" lon="2.49257">
        <ele>964.8203125</ele>
        <time>2013-05-25T10:14:49Z</time>
      </trkpt>
      <trkpt lat="45.1436" lon="2.49248">
        <ele>965.30102539062</ele>
        <time>2013-05-25T10:14:57Z</time>
      </trkpt>
      <trkpt lat="45.14359" lon="2.4924">
        <ele>965.30102539062</ele>
        <time>2013-05-25T10:15:01Z</time>
      </trkpt>
      <trkpt lat="45.14357" lon="2.49232">
        <ele>964.8203125</ele>
        <time>2013-05-25T10:15:07Z</time>
      </trkpt>
      <trkpt lat="45.14352" lon="2.49219">
        <ele>963.37841796875</ele>
        <time>2013-05-25T10:15:17Z</time>
      </trkpt>
      <trkpt lat="45.14342" lon="2.49197">
        <ele>962.89770507812</ele>
        <time>2013-05-25T10:15:33Z</time>
      </trkpt>
      <trkpt lat="45.14338" lon="2.49184">
        <ele>962.4169921875</ele>
        <time>2013-05-25T10:15:42Z</time>
      </trkpt>
      <trkpt lat="45.14337" lon="2.49181">
        <ele>961.9365234375</ele>
        <time>2013-05-25T10:15:44Z</time>
      </trkpt>
      <trkpt lat="45.14336" lon="2.49179">
        <ele>961.9365234375</ele>
        <time>2013-05-25T10:15:46Z</time>
      </trkpt>
      <trkpt lat="45.14334" lon="2.49167">
        <ele>961.9365234375</ele>
        <time>2013-05-25T10:15:52Z</time>
      </trkpt>
      <trkpt lat="45.1433" lon="2.49152">
        <ele>961.9365234375</ele>
        <time>2013-05-25T10:16:00Z</time>
      </trkpt>
      <trkpt lat="45.14329" lon="2.49148">
        <ele>961.9365234375</ele>
        <time>2013-05-25T10:16:03Z</time>
      </trkpt>
      <trkpt lat="45.14327" lon="2.49143">
        <ele>962.89770507812</ele>
        <time>2013-05-25T10:16:07Z</time>
      </trkpt>
      <trkpt lat="45.14326" lon="2.49138">
        <ele>961.45581054688</ele>
        <time>2013-05-25T10:16:09Z</time>
      </trkpt>
      <trkpt lat="45.14329" lon="2.49135">
        <ele>961.45581054688</ele>
        <time>2013-05-25T10:16:11Z</time>
      </trkpt>
      <trkpt lat="45.14331" lon="2.49131">
        <ele>961.45581054688</ele>
        <time>2013-05-25T10:16:21Z</time>
      </trkpt>
      <trkpt lat="45.14332" lon="2.49126">
        <ele>961.9365234375</ele>
        <time>2013-05-25T10:16:26Z</time>
      </trkpt>
      <trkpt lat="45.14333" lon="2.49124">
        <ele>961.45581054688</ele>
        <time>2013-05-25T10:16:28Z</time>
      </trkpt>
      <trkpt lat="45.14333" lon="2.49122">
        <ele>960.97509765625</ele>
        <time>2013-05-25T10:16:38Z</time>
      </trkpt>
      <trkpt lat="45.14332" lon="2.49121">
        <ele>960.49438476562</ele>
        <time>2013-05-25T10:16:47Z</time>
      </trkpt>
      <trkpt lat="45.14338" lon="2.49116">
        <ele>960.013671875</ele>
        <time>2013-05-25T10:17:02Z</time>
      </trkpt>
      <trkpt lat="45.14338" lon="2.49116">
        <ele>960.013671875</ele>
        <time>2013-05-25T10:17:03Z</time>
      </trkpt>
      <trkpt lat="45.14341" lon="2.49114">
        <ele>958.57177734375</ele>
        <time>2013-05-25T10:17:05Z</time>
      </trkpt>
      <trkpt lat="45.14342" lon="2.49106">
        <ele>957.61059570312</ele>
        <time>2013-05-25T10:17:11Z</time>
      </trkpt>
      <trkpt lat="45.14345" lon="2.49096">
        <ele>956.16845703125</ele>
        <time>2013-05-25T10:17:19Z</time>
      </trkpt>
      <trkpt lat="45.14346" lon="2.4909">
        <ele>956.16845703125</ele>
        <time>2013-05-25T10:17:22Z</time>
      </trkpt>
      <trkpt lat="45.14354" lon="2.49073">
        <ele>955.20703125</ele>
        <time>2013-05-25T10:17:32Z</time>
      </trkpt>
      <trkpt lat="45.14357" lon="2.49063">
        <ele>953.76513671875</ele>
        <time>2013-05-25T10:17:38Z</time>
      </trkpt>
      <trkpt lat="45.14362" lon="2.49049">
        <ele>952.32299804688</ele>
        <time>2013-05-25T10:17:45Z</time>
      </trkpt>
      <trkpt lat="45.14367" lon="2.49034">
        <ele>950.40063476562</ele>
        <time>2013-05-25T10:17:55Z</time>
      </trkpt>
      <trkpt lat="45.14372" lon="2.49023">
        <ele>949.919921875</ele>
        <time>2013-05-25T10:18:01Z</time>
      </trkpt>
      <trkpt lat="45.14378" lon="2.49006">
        <ele>949.43920898438</ele>
        <time>2013-05-25T10:18:11Z</time>
      </trkpt>
      <trkpt lat="45.14384" lon="2.48986">
        <ele>947.5166015625</ele>
        <time>2013-05-25T10:18:23Z</time>
      </trkpt>
      <trkpt lat="45.14385" lon="2.48979">
        <ele>947.5166015625</ele>
        <time>2013-05-25T10:18:27Z</time>
      </trkpt>
      <trkpt lat="45.14389" lon="2.48958">
        <ele>945.59399414062</ele>
        <time>2013-05-25T10:18:39Z</time>
      </trkpt>
      <trkpt lat="45.14395" lon="2.48953">
        <ele>945.59399414062</ele>
        <time>2013-05-25T10:18:44Z</time>
      </trkpt>
      <trkpt lat="45.14395" lon="2.48946">
        <ele>945.11328125</ele>
        <time>2013-05-25T10:18:48Z</time>
      </trkpt>
      <trkpt lat="45.14397" lon="2.48945">
        <ele>945.11328125</ele>
        <time>2013-05-25T10:18:51Z</time>
      </trkpt>
      <trkpt lat="45.14397" lon="2.48936">
        <ele>943.67138671875</ele>
        <time>2013-05-25T10:19:01Z</time>
      </trkpt>
      <trkpt lat="45.14399" lon="2.4893">
        <ele>942.71020507812</ele>
        <time>2013-05-25T10:19:08Z</time>
      </trkpt>
      <trkpt lat="45.14401" lon="2.48925">
        <ele>942.2294921875</ele>
        <time>2013-05-25T10:19:10Z</time>
      </trkpt>
      <trkpt lat="45.14403" lon="2.48922">
        <ele>942.71020507812</ele>
        <time>2013-05-25T10:19:12Z</time>
      </trkpt>
      <trkpt lat="45.14402" lon="2.48914">
        <ele>941.74877929688</ele>
        <time>2013-05-25T10:19:20Z</time>
      </trkpt>
      <trkpt lat="45.14406" lon="2.48903">
        <ele>942.2294921875</ele>
        <time>2013-05-25T10:19:37Z</time>
      </trkpt>
      <trkpt lat="45.14409" lon="2.48901">
        <ele>941.74877929688</ele>
        <time>2013-05-25T10:19:39Z</time>
      </trkpt>
      <trkpt lat="45.14411" lon="2.48897">
        <ele>941.26806640625</ele>
        <time>2013-05-25T10:19:44Z</time>
      </trkpt>
      <trkpt lat="45.14417" lon="2.48894">
        <ele>940.78735351562</ele>
        <time>2013-05-25T10:19:56Z</time>
      </trkpt>
      <trkpt lat="45.14423" lon="2.48892">
        <ele>940.78735351562</ele>
        <time>2013-05-25T10:20:03Z</time>
      </trkpt>
      <trkpt lat="45.14426" lon="2.48891">
        <ele>940.78735351562</ele>
        <time>2013-05-25T10:20:05Z</time>
      </trkpt>
      <trkpt lat="45.14437" lon="2.48876">
        <ele>940.78735351562</ele>
        <time>2013-05-25T10:20:14Z</time>
      </trkpt>
      <trkpt lat="45.14448" lon="2.48868">
        <ele>940.78735351562</ele>
        <time>2013-05-25T10:20:28Z</time>
      </trkpt>
      <trkpt lat="45.14453" lon="2.48863">
        <ele>940.78735351562</ele>
        <time>2013-05-25T10:20:33Z</time>
      </trkpt>
      <trkpt lat="45.14464" lon="2.48856">
        <ele>941.26806640625</ele>
        <time>2013-05-25T10:20:41Z</time>
      </trkpt>
      <trkpt lat="45.14467" lon="2.48854">
        <ele>941.26806640625</ele>
        <time>2013-05-25T10:20:43Z</time>
      </trkpt>
      <trkpt lat="45.14467" lon="2.48853">
        <ele>940.30688476562</ele>
        <time>2013-05-25T10:20:45Z</time>
      </trkpt>
      <trkpt lat="45.14469" lon="2.48852">
        <ele>941.26806640625</ele>
        <time>2013-05-25T10:20:47Z</time>
      </trkpt>
      <trkpt lat="45.14471" lon="2.48848">
        <ele>941.26806640625</ele>
        <time>2013-05-25T10:20:48Z</time>
      </trkpt>
      <trkpt lat="45.14474" lon="2.48843">
        <ele>941.26806640625</ele>
        <time>2013-05-25T10:20:55Z</time>
      </trkpt>
      <trkpt lat="45.14485" lon="2.48835">
        <ele>941.74877929688</ele>
        <time>2013-05-25T10:21:07Z</time>
      </trkpt>
      <trkpt lat="45.14486" lon="2.4883">
        <ele>941.26806640625</ele>
        <time>2013-05-25T10:21:11Z</time>
      </trkpt>
      <trkpt lat="45.14485" lon="2.48829">
        <ele>941.74877929688</ele>
        <time>2013-05-25T10:21:13Z</time>
      </trkpt>
      <trkpt lat="45.14479" lon="2.4882">
        <ele>939.34521484375</ele>
        <time>2013-05-25T10:21:27Z</time>
      </trkpt>
      <trkpt lat="45.14477" lon="2.48815">
        <ele>939.34521484375</ele>
        <time>2013-05-25T10:21:41Z</time>
      </trkpt>
      <trkpt lat="45.14471" lon="2.48809">
        <ele>939.34521484375</ele>
        <time>2013-05-25T10:21:52Z</time>
      </trkpt>
      <trkpt lat="45.14469" lon="2.48806">
        <ele>938.86474609375</ele>
        <time>2013-05-25T10:21:55Z</time>
      </trkpt>
      <trkpt lat="45.14465" lon="2.48808">
        <ele>938.86474609375</ele>
        <time>2013-05-25T10:22:07Z</time>
      </trkpt>
      <trkpt lat="45.14471" lon="2.48789">
        <ele>937.9033203125</ele>
        <time>2013-05-25T10:22:20Z</time>
      </trkpt>
      <trkpt lat="45.14472" lon="2.48786">
        <ele>937.9033203125</ele>
        <time>2013-05-25T10:22:22Z</time>
      </trkpt>
      <trkpt lat="45.14478" lon="2.48777">
        <ele>937.42260742188</ele>
        <time>2013-05-25T10:22:25Z</time>
      </trkpt>
      <trkpt lat="45.14479" lon="2.48776">
        <ele>937.42260742188</ele>
        <time>2013-05-25T10:22:27Z</time>
      </trkpt>
      <trkpt lat="45.14486" lon="2.48771">
        <ele>937.9033203125</ele>
        <time>2013-05-25T10:22:38Z</time>
      </trkpt>
      <trkpt lat="45.14491" lon="2.4877">
        <ele>938.38403320312</ele>
        <time>2013-05-25T10:22:43Z</time>
      </trkpt>
      <trkpt lat="45.14494" lon="2.48761">
        <ele>937.9033203125</ele>
        <time>2013-05-25T10:23:00Z</time>
      </trkpt>
      <trkpt lat="45.14502" lon="2.48752">
        <ele>937.9033203125</ele>
        <time>2013-05-25T10:23:23Z</time>
      </trkpt>
      <trkpt lat="45.14508" lon="2.4875">
        <ele>937.9033203125</ele>
        <time>2013-05-25T10:23:35Z</time>
      </trkpt>
      <trkpt lat="45.14516" lon="2.48745">
        <ele>938.38403320312</ele>
        <time>2013-05-25T10:23:51Z</time>
      </trkpt>
      <trkpt lat="45.14517" lon="2.48748">
        <ele>938.38403320312</ele>
        <time>2013-05-25T10:23:57Z</time>
      </trkpt>
      <trkpt lat="45.14523" lon="2.48742">
        <ele>937.9033203125</ele>
        <time>2013-05-25T10:24:06Z</time>
      </trkpt>
      <trkpt lat="45.1453" lon="2.48742">
        <ele>938.86474609375</ele>
        <time>2013-05-25T10:24:18Z</time>
      </trkpt>
      <trkpt lat="45.14537" lon="2.48736">
        <ele>938.38403320312</ele>
        <time>2013-05-25T10:24:28Z</time>
      </trkpt>
      <trkpt lat="45.14547" lon="2.48726">
        <ele>938.38403320312</ele>
        <time>2013-05-25T10:24:38Z</time>
      </trkpt>
      <trkpt lat="45.14554" lon="2.48713">
        <ele>938.38403320312</ele>
        <time>2013-05-25T10:24:50Z</time>
      </trkpt>
      <trkpt lat="45.14555" lon="2.48712">
        <ele>938.38403320312</ele>
        <time>2013-05-25T10:24:51Z</time>
      </trkpt>
      <trkpt lat="45.14562" lon="2.487">
        <ele>938.38403320312</ele>
        <time>2013-05-25T10:25:06Z</time>
      </trkpt>
      <trkpt lat="45.14566" lon="2.48691">
        <ele>938.38403320312</ele>
        <time>2013-05-25T10:25:19Z</time>
      </trkpt>
      <trkpt lat="45.14577" lon="2.48682">
        <ele>938.38403320312</ele>
        <time>2013-05-25T10:25:31Z</time>
      </trkpt>
      <trkpt lat="45.14584" lon="2.48676">
        <ele>937.9033203125</ele>
        <time>2013-05-25T10:25:38Z</time>
      </trkpt>
      <trkpt lat="45.14591" lon="2.48672">
        <ele>937.9033203125</ele>
        <time>2013-05-25T10:25:49Z</time>
      </trkpt>
      <trkpt lat="45.14599" lon="2.48662">
        <ele>938.86474609375</ele>
        <time>2013-05-25T10:26:05Z</time>
      </trkpt>
      <trkpt lat="45.14602" lon="2.48657">
        <ele>938.38403320312</ele>
        <time>2013-05-25T10:26:17Z</time>
      </trkpt>
      <trkpt lat="45.14603" lon="2.48658">
        <ele>938.86474609375</ele>
        <time>2013-05-25T10:26:24Z</time>
      </trkpt>
      <trkpt lat="45.14611" lon="2.48653">
        <ele>939.82592773438</ele>
        <time>2013-05-25T10:26:35Z</time>
      </trkpt>
      <trkpt lat="45.1462" lon="2.48641">
        <ele>939.82592773438</ele>
        <time>2013-05-25T10:26:46Z</time>
      </trkpt>
      <trkpt lat="45.14623" lon="2.48638">
        <ele>940.78735351562</ele>
        <time>2013-05-25T10:26:49Z</time>
      </trkpt>
      <trkpt lat="45.14624" lon="2.48634">
        <ele>940.30688476562</ele>
        <time>2013-05-25T10:26:52Z</time>
      </trkpt>
      <trkpt lat="45.14627" lon="2.48632">
        <ele>939.82592773438</ele>
        <time>2013-05-25T10:26:54Z</time>
      </trkpt>
      <trkpt lat="45.14636" lon="2.48614">
        <ele>939.34521484375</ele>
        <time>2013-05-25T10:27:07Z</time>
      </trkpt>
      <trkpt lat="45.14641" lon="2.48601">
        <ele>939.34521484375</ele>
        <time>2013-05-25T10:27:17Z</time>
      </trkpt>
      <trkpt lat="45.14644" lon="2.48596">
        <ele>939.82592773438</ele>
        <time>2013-05-25T10:27:20Z</time>
      </trkpt>
      <trkpt lat="45.14646" lon="2.48594">
        <ele>939.82592773438</ele>
        <time>2013-05-25T10:27:22Z</time>
      </trkpt>
      <trkpt lat="45.14651" lon="2.48588">
        <ele>939.82592773438</ele>
        <time>2013-05-25T10:27:29Z</time>
      </trkpt>
      <trkpt lat="45.14656" lon="2.48589">
        <ele>939.82592773438</ele>
        <time>2013-05-25T10:27:36Z</time>
      </trkpt>
      <trkpt lat="45.14662" lon="2.48582">
        <ele>940.78735351562</ele>
        <time>2013-05-25T10:27:45Z</time>
      </trkpt>
      <trkpt lat="45.14667" lon="2.48574">
        <ele>940.78735351562</ele>
        <time>2013-05-25T10:27:53Z</time>
      </trkpt>
      <trkpt lat="45.14668" lon="2.48568">
        <ele>940.30688476562</ele>
        <time>2013-05-25T10:27:58Z</time>
      </trkpt>
      <trkpt lat="45.14668" lon="2.48566">
        <ele>940.30688476562</ele>
        <time>2013-05-25T10:28:02Z</time>
      </trkpt>
      <trkpt lat="45.14671" lon="2.48559">
        <ele>939.82592773438</ele>
        <time>2013-05-25T10:28:07Z</time>
      </trkpt>
      <trkpt lat="45.14673" lon="2.48556">
        <ele>939.82592773438</ele>
        <time>2013-05-25T10:28:12Z</time>
      </trkpt>
      <trkpt lat="45.14676" lon="2.48552">
        <ele>939.34521484375</ele>
        <time>2013-05-25T10:28:15Z</time>
      </trkpt>
      <trkpt lat="45.14678" lon="2.48548">
        <ele>939.82592773438</ele>
        <time>2013-05-25T10:28:18Z</time>
      </trkpt>
      <trkpt lat="45.14685" lon="2.4854">
        <ele>939.82592773438</ele>
        <time>2013-05-25T10:28:27Z</time>
      </trkpt>
      <trkpt lat="45.14685" lon="2.48537">
        <ele>938.86474609375</ele>
        <time>2013-05-25T10:28:30Z</time>
      </trkpt>
      <trkpt lat="45.1469" lon="2.48532">
        <ele>939.34521484375</ele>
        <time>2013-05-25T10:28:35Z</time>
      </trkpt>
      <trkpt lat="45.14692" lon="2.48529">
        <ele>939.34521484375</ele>
        <time>2013-05-25T10:28:38Z</time>
      </trkpt>
      <trkpt lat="45.14695" lon="2.48524">
        <ele>938.38403320312</ele>
        <time>2013-05-25T10:28:44Z</time>
      </trkpt>
      <trkpt lat="45.14698" lon="2.48521">
        <ele>938.86474609375</ele>
        <time>2013-05-25T10:28:49Z</time>
      </trkpt>
      <trkpt lat="45.14701" lon="2.48518">
        <ele>939.34521484375</ele>
        <time>2013-05-25T10:28:53Z</time>
      </trkpt>
      <trkpt lat="45.14701" lon="2.48513">
        <ele>937.9033203125</ele>
        <time>2013-05-25T10:28:56Z</time>
      </trkpt>
      <trkpt lat="45.14702" lon="2.48513">
        <ele>938.38403320312</ele>
        <time>2013-05-25T10:28:57Z</time>
      </trkpt>
      <trkpt lat="45.14705" lon="2.48508">
        <ele>938.38403320312</ele>
        <time>2013-05-25T10:29:04Z</time>
      </trkpt>
      <trkpt lat="45.14711" lon="2.48499">
        <ele>936.94189453125</ele>
        <time>2013-05-25T10:29:14Z</time>
      </trkpt>
      <trkpt lat="45.14714" lon="2.48496">
        <ele>936.94189453125</ele>
        <time>2013-05-25T10:29:17Z</time>
      </trkpt>
      <trkpt lat="45.1472" lon="2.48485">
        <ele>935.5</ele>
        <time>2013-05-25T10:29:27Z</time>
      </trkpt>
      <trkpt lat="45.14728" lon="2.48473">
        <ele>933.57739257812</ele>
        <time>2013-05-25T10:29:38Z</time>
      </trkpt>
      <trkpt lat="45.14734" lon="2.48463">
        <ele>934.05810546875</ele>
        <time>2013-05-25T10:29:46Z</time>
      </trkpt>
      <trkpt lat="45.1474" lon="2.48456">
        <ele>933.57739257812</ele>
        <time>2013-05-25T10:29:53Z</time>
      </trkpt>
      <trkpt lat="45.14744" lon="2.4845">
        <ele>932.6162109375</ele>
        <time>2013-05-25T10:29:59Z</time>
      </trkpt>
      <trkpt lat="45.14746" lon="2.48448">
        <ele>932.6162109375</ele>
        <time>2013-05-25T10:30:03Z</time>
      </trkpt>
      <trkpt lat="45.14754" lon="2.48437">
        <ele>931.65478515625</ele>
        <time>2013-05-25T10:30:17Z</time>
      </trkpt>
      <trkpt lat="45.1476" lon="2.48425">
        <ele>931.17431640625</ele>
        <time>2013-05-25T10:30:30Z</time>
      </trkpt>
      <trkpt lat="45.14767" lon="2.48412">
        <ele>931.65478515625</ele>
        <time>2013-05-25T10:30:38Z</time>
      </trkpt>
      <trkpt lat="45.14769" lon="2.48409">
        <ele>929.73217773438</ele>
        <time>2013-05-25T10:30:42Z</time>
      </trkpt>
      <trkpt lat="45.14768" lon="2.48404">
        <ele>930.69360351562</ele>
        <time>2013-05-25T10:30:44Z</time>
      </trkpt>
      <trkpt lat="45.14771" lon="2.48404">
        <ele>930.212890625</ele>
        <time>2013-05-25T10:30:46Z</time>
      </trkpt>
      <trkpt lat="45.14774" lon="2.48393">
        <ele>929.73217773438</ele>
        <time>2013-05-25T10:30:52Z</time>
      </trkpt>
      <trkpt lat="45.14779" lon="2.48388">
        <ele>928.29028320312</ele>
        <time>2013-05-25T10:31:03Z</time>
      </trkpt>
      <trkpt lat="45.14782" lon="2.48381">
        <ele>928.29028320312</ele>
        <time>2013-05-25T10:31:11Z</time>
      </trkpt>
      <trkpt lat="45.14782" lon="2.48372">
        <ele>927.3291015625</ele>
        <time>2013-05-25T10:31:18Z</time>
      </trkpt>
      <trkpt lat="45.14778" lon="2.48367">
        <ele>927.8095703125</ele>
        <time>2013-05-25T10:31:23Z</time>
      </trkpt>
      <trkpt lat="45.14776" lon="2.4836">
        <ele>927.3291015625</ele>
        <time>2013-05-25T10:31:33Z</time>
      </trkpt>
      <trkpt lat="45.14773" lon="2.48358">
        <ele>927.3291015625</ele>
        <time>2013-05-25T10:31:35Z</time>
      </trkpt>
      <trkpt lat="45.1477" lon="2.48353">
        <ele>926.84838867188</ele>
        <time>2013-05-25T10:31:39Z</time>
      </trkpt>
      <trkpt lat="45.1477" lon="2.48345">
        <ele>926.36767578125</ele>
        <time>2013-05-25T10:31:46Z</time>
      </trkpt>
      <trkpt lat="45.14757" lon="2.48337">
        <ele>925.88696289062</ele>
        <time>2013-05-25T10:31:56Z</time>
      </trkpt>
      <trkpt lat="45.14749" lon="2.48327">
        <ele>925.88696289062</ele>
        <time>2013-05-25T10:32:04Z</time>
      </trkpt>
      <trkpt lat="45.14737" lon="2.48313">
        <ele>923.96411132812</ele>
        <time>2013-05-25T10:32:17Z</time>
      </trkpt>
      <trkpt lat="45.14735" lon="2.48311">
        <ele>923.48364257812</ele>
        <time>2013-05-25T10:32:20Z</time>
      </trkpt>
      <trkpt lat="45.14725" lon="2.48295">
        <ele>923.0029296875</ele>
        <time>2013-05-25T10:32:33Z</time>
      </trkpt>
      <trkpt lat="45.14722" lon="2.48289">
        <ele>922.04150390625</ele>
        <time>2013-05-25T10:32:41Z</time>
      </trkpt>
      <trkpt lat="45.14719" lon="2.48291">
        <ele>921.56079101562</ele>
        <time>2013-05-25T10:32:45Z</time>
      </trkpt>
      <trkpt lat="45.14719" lon="2.48294">
        <ele>921.56079101562</ele>
        <time>2013-05-25T10:32:47Z</time>
      </trkpt>
      <trkpt lat="45.14706" lon="2.48306">
        <ele>921.08032226562</ele>
        <time>2013-05-25T10:33:03Z</time>
      </trkpt>
      <trkpt lat="45.14704" lon="2.48308">
        <ele>921.08032226562</ele>
        <time>2013-05-25T10:33:05Z</time>
      </trkpt>
      <trkpt lat="45.14695" lon="2.48316">
        <ele>922.04150390625</ele>
        <time>2013-05-25T10:33:14Z</time>
      </trkpt>
      <trkpt lat="45.1468" lon="2.48325">
        <ele>923.0029296875</ele>
        <time>2013-05-25T10:33:24Z</time>
      </trkpt>
      <trkpt lat="45.14669" lon="2.48332">
        <ele>923.96411132812</ele>
        <time>2013-05-25T10:33:41Z</time>
      </trkpt>
      <trkpt lat="45.14668" lon="2.48331">
        <ele>923.0029296875</ele>
        <time>2013-05-25T10:33:42Z</time>
      </trkpt>
      <trkpt lat="45.14657" lon="2.48312">
        <ele>920.599609375</ele>
        <time>2013-05-25T10:33:54Z</time>
      </trkpt>
      <trkpt lat="45.14654" lon="2.48308">
        <ele>919.63842773438</ele>
        <time>2013-05-25T10:33:58Z</time>
      </trkpt>
      <trkpt lat="45.14646" lon="2.48299">
        <ele>919.63842773438</ele>
        <time>2013-05-25T10:34:05Z</time>
      </trkpt>
      <trkpt lat="45.1463" lon="2.48281">
        <ele>919.15771484375</ele>
        <time>2013-05-25T10:34:17Z</time>
      </trkpt>
      <trkpt lat="45.14617" lon="2.48259">
        <ele>918.67700195312</ele>
        <time>2013-05-25T10:34:30Z</time>
      </trkpt>
      <trkpt lat="45.14613" lon="2.48254">
        <ele>919.15771484375</ele>
        <time>2013-05-25T10:34:35Z</time>
      </trkpt>
      <trkpt lat="45.14606" lon="2.48246">
        <ele>919.15771484375</ele>
        <time>2013-05-25T10:34:43Z</time>
      </trkpt>
      <trkpt lat="45.14594" lon="2.48228">
        <ele>920.11889648438</ele>
        <time>2013-05-25T10:34:54Z</time>
      </trkpt>
      <trkpt lat="45.14572" lon="2.48208">
        <ele>919.15771484375</ele>
        <time>2013-05-25T10:35:11Z</time>
      </trkpt>
      <trkpt lat="45.14565" lon="2.48197">
        <ele>919.63842773438</ele>
        <time>2013-05-25T10:35:19Z</time>
      </trkpt>
      <trkpt lat="45.14564" lon="2.48195">
        <ele>919.63842773438</ele>
        <time>2013-05-25T10:35:21Z</time>
      </trkpt>
      <trkpt lat="45.14558" lon="2.48186">
        <ele>920.11889648438</ele>
        <time>2013-05-25T10:35:27Z</time>
      </trkpt>
      <trkpt lat="45.14553" lon="2.48182">
        <ele>920.599609375</ele>
        <time>2013-05-25T10:35:31Z</time>
      </trkpt>
      <trkpt lat="45.14538" lon="2.4816">
        <ele>919.63842773438</ele>
        <time>2013-05-25T10:35:48Z</time>
      </trkpt>
      <trkpt lat="45.14529" lon="2.48148">
        <ele>918.67700195312</ele>
        <time>2013-05-25T10:35:57Z</time>
      </trkpt>
      <trkpt lat="45.14517" lon="2.4813">
        <ele>917.23510742188</ele>
        <time>2013-05-25T10:36:11Z</time>
      </trkpt>
      <trkpt lat="45.14507" lon="2.48118">
        <ele>915.79321289062</ele>
        <time>2013-05-25T10:36:20Z</time>
      </trkpt>
      <trkpt lat="45.14506" lon="2.48113">
        <ele>915.3125</ele>
        <time>2013-05-25T10:36:22Z</time>
      </trkpt>
      <trkpt lat="45.14491" lon="2.48085">
        <ele>914.83178710938</ele>
        <time>2013-05-25T10:36:39Z</time>
      </trkpt>
      <trkpt lat="45.14484" lon="2.48075">
        <ele>914.35107421875</ele>
        <time>2013-05-25T10:36:46Z</time>
      </trkpt>
      <trkpt lat="45.14482" lon="2.48069">
        <ele>914.35107421875</ele>
        <time>2013-05-25T10:36:49Z</time>
      </trkpt>
      <trkpt lat="45.14467" lon="2.48044">
        <ele>913.87036132812</ele>
        <time>2013-05-25T10:37:07Z</time>
      </trkpt>
      <trkpt lat="45.14455" lon="2.48025">
        <ele>913.38989257812</ele>
        <time>2013-05-25T10:37:18Z</time>
      </trkpt>
      <trkpt lat="45.14441" lon="2.48007">
        <ele>912.42846679688</ele>
        <time>2013-05-25T10:37:32Z</time>
      </trkpt>
      <trkpt lat="45.14423" lon="2.47983">
        <ele>910.505859375</ele>
        <time>2013-05-25T10:37:48Z</time>
      </trkpt>
      <trkpt lat="45.14417" lon="2.47974">
        <ele>909.06396484375</ele>
        <time>2013-05-25T10:37:55Z</time>
      </trkpt>
      <trkpt lat="45.14411" lon="2.47966">
        <ele>909.06396484375</ele>
        <time>2013-05-25T10:38:00Z</time>
      </trkpt>
      <trkpt lat="45.14395" lon="2.47959">
        <ele>908.10278320312</ele>
        <time>2013-05-25T10:38:14Z</time>
      </trkpt>
      <trkpt lat="45.14393" lon="2.47959">
        <ele>908.10278320312</ele>
        <time>2013-05-25T10:38:15Z</time>
      </trkpt>
      <trkpt lat="45.14377" lon="2.47984">
        <ele>907.62182617188</ele>
        <time>2013-05-25T10:38:30Z</time>
      </trkpt>
      <trkpt lat="45.14373" lon="2.4799">
        <ele>907.62182617188</ele>
        <time>2013-05-25T10:38:35Z</time>
      </trkpt>
      <trkpt lat="45.14356" lon="2.48009">
        <ele>908.10278320312</ele>
        <time>2013-05-25T10:38:51Z</time>
      </trkpt>
      <trkpt lat="45.14353" lon="2.48012">
        <ele>908.10278320312</ele>
        <time>2013-05-25T10:38:53Z</time>
      </trkpt>
      <trkpt lat="45.14342" lon="2.48025">
        <ele>908.58325195312</ele>
        <time>2013-05-25T10:39:07Z</time>
      </trkpt>
      <trkpt lat="45.14328" lon="2.48033">
        <ele>909.54467773438</ele>
        <time>2013-05-25T10:39:18Z</time>
      </trkpt>
      <trkpt lat="45.14312" lon="2.48038">
        <ele>910.505859375</ele>
        <time>2013-05-25T10:39:32Z</time>
      </trkpt>
      <trkpt lat="45.14309" lon="2.48038">
        <ele>910.02514648438</ele>
        <time>2013-05-25T10:39:34Z</time>
      </trkpt>
      <trkpt lat="45.14296" lon="2.48041">
        <ele>911.46728515625</ele>
        <time>2013-05-25T10:39:46Z</time>
      </trkpt>
      <trkpt lat="45.14282" lon="2.48045">
        <ele>911.46728515625</ele>
        <time>2013-05-25T10:39:57Z</time>
      </trkpt>
      <trkpt lat="45.14277" lon="2.48051">
        <ele>911.94799804688</ele>
        <time>2013-05-25T10:40:04Z</time>
      </trkpt>
      <trkpt lat="45.14263" lon="2.48049">
        <ele>912.42846679688</ele>
        <time>2013-05-25T10:40:13Z</time>
      </trkpt>
      <trkpt lat="45.14245" lon="2.48049">
        <ele>912.42846679688</ele>
        <time>2013-05-25T10:40:24Z</time>
      </trkpt>
      <trkpt lat="45.14226" lon="2.48051">
        <ele>913.38989257812</ele>
        <time>2013-05-25T10:40:36Z</time>
      </trkpt>
      <trkpt lat="45.14209" lon="2.48048">
        <ele>914.35107421875</ele>
        <time>2013-05-25T10:40:46Z</time>
      </trkpt>
      <trkpt lat="45.14207" lon="2.48049">
        <ele>914.35107421875</ele>
        <time>2013-05-25T10:40:48Z</time>
      </trkpt>
      <trkpt lat="45.14203" lon="2.48051">
        <ele>914.35107421875</ele>
        <time>2013-05-25T10:40:56Z</time>
      </trkpt>
      <trkpt lat="45.14191" lon="2.48047">
        <ele>914.83178710938</ele>
        <time>2013-05-25T10:41:06Z</time>
      </trkpt>
      <trkpt lat="45.14189" lon="2.48049">
        <ele>915.3125</ele>
        <time>2013-05-25T10:41:09Z</time>
      </trkpt>
      <trkpt lat="45.14173" lon="2.4805">
        <ele>916.27368164062</ele>
        <time>2013-05-25T10:41:22Z</time>
      </trkpt>
      <trkpt lat="45.1416" lon="2.48051">
        <ele>916.75439453125</ele>
        <time>2013-05-25T10:41:34Z</time>
      </trkpt>
      <trkpt lat="45.14153" lon="2.48053">
        <ele>916.75439453125</ele>
        <time>2013-05-25T10:41:39Z</time>
      </trkpt>
      <trkpt lat="45.14147" lon="2.48051">
        <ele>917.23510742188</ele>
        <time>2013-05-25T10:41:43Z</time>
      </trkpt>
      <trkpt lat="45.14137" lon="2.48048">
        <ele>918.1962890625</ele>
        <time>2013-05-25T10:41:49Z</time>
      </trkpt>
      <trkpt lat="45.14126" lon="2.48055">
        <ele>917.71557617188</ele>
        <time>2013-05-25T10:41:58Z</time>
      </trkpt>
      <trkpt lat="45.14117" lon="2.48064">
        <ele>919.15771484375</ele>
        <time>2013-05-25T10:42:09Z</time>
      </trkpt>
      <trkpt lat="45.14116" lon="2.48065">
        <ele>919.15771484375</ele>
        <time>2013-05-25T10:42:10Z</time>
      </trkpt>
      <trkpt lat="45.14112" lon="2.4807">
        <ele>919.15771484375</ele>
        <time>2013-05-25T10:42:15Z</time>
      </trkpt>
      <trkpt lat="45.14111" lon="2.48074">
        <ele>919.63842773438</ele>
        <time>2013-05-25T10:42:18Z</time>
      </trkpt>
      <trkpt lat="45.14105" lon="2.48081">
        <ele>921.08032226562</ele>
        <time>2013-05-25T10:42:24Z</time>
      </trkpt>
      <trkpt lat="45.14099" lon="2.48086">
        <ele>920.599609375</ele>
        <time>2013-05-25T10:42:30Z</time>
      </trkpt>
      <trkpt lat="45.14087" lon="2.48098">
        <ele>921.56079101562</ele>
        <time>2013-05-25T10:42:44Z</time>
      </trkpt>
      <trkpt lat="45.14077" lon="2.48107">
        <ele>921.56079101562</ele>
        <time>2013-05-25T10:42:56Z</time>
      </trkpt>
      <trkpt lat="45.14075" lon="2.48109">
        <ele>921.08032226562</ele>
        <time>2013-05-25T10:42:57Z</time>
      </trkpt>
      <trkpt lat="45.14073" lon="2.48111">
        <ele>921.08032226562</ele>
        <time>2013-05-25T10:42:59Z</time>
      </trkpt>
      <trkpt lat="45.14058" lon="2.48125">
        <ele>921.08032226562</ele>
        <time>2013-05-25T10:43:13Z</time>
      </trkpt>
      <trkpt lat="45.14053" lon="2.48133">
        <ele>921.08032226562</ele>
        <time>2013-05-25T10:43:17Z</time>
      </trkpt>
      <trkpt lat="45.14045" lon="2.48141">
        <ele>922.04150390625</ele>
        <time>2013-05-25T10:43:23Z</time>
      </trkpt>
      <trkpt lat="45.14038" lon="2.48152">
        <ele>922.04150390625</ele>
        <time>2013-05-25T10:43:31Z</time>
      </trkpt>
      <trkpt lat="45.14035" lon="2.48157">
        <ele>923.0029296875</ele>
        <time>2013-05-25T10:43:35Z</time>
      </trkpt>
      <trkpt lat="45.14022" lon="2.48176">
        <ele>922.52221679688</ele>
        <time>2013-05-25T10:43:47Z</time>
      </trkpt>
      <trkpt lat="45.14011" lon="2.48207">
        <ele>923.48364257812</ele>
        <time>2013-05-25T10:44:06Z</time>
      </trkpt>
      <trkpt lat="45.14004" lon="2.48219">
        <ele>923.48364257812</ele>
        <time>2013-05-25T10:44:15Z</time>
      </trkpt>
      <trkpt lat="45.14001" lon="2.48225">
        <ele>923.96411132812</ele>
        <time>2013-05-25T10:44:22Z</time>
      </trkpt>
      <trkpt lat="45.13996" lon="2.4823">
        <ele>924.44506835938</ele>
        <time>2013-05-25T10:44:26Z</time>
      </trkpt>
      <trkpt lat="45.13992" lon="2.48235">
        <ele>923.96411132812</ele>
        <time>2013-05-25T10:44:30Z</time>
      </trkpt>
      <trkpt lat="45.13991" lon="2.48237">
        <ele>923.96411132812</ele>
        <time>2013-05-25T10:44:32Z</time>
      </trkpt>
      <trkpt lat="45.13986" lon="2.48238">
        <ele>923.0029296875</ele>
        <time>2013-05-25T10:44:36Z</time>
      </trkpt>
      <trkpt lat="45.13969" lon="2.4826">
        <ele>922.52221679688</ele>
        <time>2013-05-25T10:44:51Z</time>
      </trkpt>
      <trkpt lat="45.13961" lon="2.4827">
        <ele>922.04150390625</ele>
        <time>2013-05-25T10:45:03Z</time>
      </trkpt>
      <trkpt lat="45.13953" lon="2.48283">
        <ele>922.04150390625</ele>
        <time>2013-05-25T10:45:15Z</time>
      </trkpt>
      <trkpt lat="45.13941" lon="2.483">
        <ele>922.52221679688</ele>
        <time>2013-05-25T10:45:29Z</time>
      </trkpt>
      <trkpt lat="45.1394" lon="2.48301">
        <ele>922.52221679688</ele>
        <time>2013-05-25T10:45:30Z</time>
      </trkpt>
      <trkpt lat="45.1393" lon="2.48311">
        <ele>923.48364257812</ele>
        <time>2013-05-25T10:45:40Z</time>
      </trkpt>
      <trkpt lat="45.13922" lon="2.48318">
        <ele>924.44506835938</ele>
        <time>2013-05-25T10:45:46Z</time>
      </trkpt>
      <trkpt lat="45.13914" lon="2.4833">
        <ele>924.44506835938</ele>
        <time>2013-05-25T10:45:55Z</time>
      </trkpt>
      <trkpt lat="45.13906" lon="2.48337">
        <ele>923.96411132812</ele>
        <time>2013-05-25T10:46:02Z</time>
      </trkpt>
      <trkpt lat="45.13897" lon="2.48348">
        <ele>923.96411132812</ele>
        <time>2013-05-25T10:46:12Z</time>
      </trkpt>
      <trkpt lat="45.13882" lon="2.48366">
        <ele>924.44506835938</ele>
        <time>2013-05-25T10:46:26Z</time>
      </trkpt>
      <trkpt lat="45.13868" lon="2.4838">
        <ele>924.92578125</ele>
        <time>2013-05-25T10:46:38Z</time>
      </trkpt>
      <trkpt lat="45.13862" lon="2.48385">
        <ele>924.44506835938</ele>
        <time>2013-05-25T10:46:45Z</time>
      </trkpt>
      <trkpt lat="45.13851" lon="2.48398">
        <ele>924.92578125</ele>
        <time>2013-05-25T10:46:56Z</time>
      </trkpt>
      <trkpt lat="45.13845" lon="2.48402">
        <ele>924.92578125</ele>
        <time>2013-05-25T10:47:01Z</time>
      </trkpt>
      <trkpt lat="45.13838" lon="2.48411">
        <ele>924.92578125</ele>
        <time>2013-05-25T10:47:08Z</time>
      </trkpt>
      <trkpt lat="45.1383" lon="2.48421">
        <ele>925.88696289062</ele>
        <time>2013-05-25T10:47:16Z</time>
      </trkpt>
      <trkpt lat="45.13825" lon="2.48427">
        <ele>925.88696289062</ele>
        <time>2013-05-25T10:47:22Z</time>
      </trkpt>
      <trkpt lat="45.13822" lon="2.48433">
        <ele>926.36767578125</ele>
        <time>2013-05-25T10:47:27Z</time>
      </trkpt>
      <trkpt lat="45.13814" lon="2.48438">
        <ele>926.84838867188</ele>
        <time>2013-05-25T10:47:34Z</time>
      </trkpt>
      <trkpt lat="45.13812" lon="2.48439">
        <ele>926.36767578125</ele>
        <time>2013-05-25T10:47:36Z</time>
      </trkpt>
      <trkpt lat="45.13806" lon="2.48452">
        <ele>926.84838867188</ele>
        <time>2013-05-25T10:47:47Z</time>
      </trkpt>
      <trkpt lat="45.13805" lon="2.48452">
        <ele>926.84838867188</ele>
        <time>2013-05-25T10:47:48Z</time>
      </trkpt>
      <trkpt lat="45.13798" lon="2.48461">
        <ele>926.84838867188</ele>
        <time>2013-05-25T10:47:55Z</time>
      </trkpt>
      <trkpt lat="45.13785" lon="2.48474">
        <ele>926.84838867188</ele>
        <time>2013-05-25T10:48:08Z</time>
      </trkpt>
      <trkpt lat="45.13776" lon="2.48492">
        <ele>927.3291015625</ele>
        <time>2013-05-25T10:48:20Z</time>
      </trkpt>
      <trkpt lat="45.13767" lon="2.48502">
        <ele>927.8095703125</ele>
        <time>2013-05-25T10:48:27Z</time>
      </trkpt>
      <trkpt lat="45.13757" lon="2.4852">
        <ele>927.8095703125</ele>
        <time>2013-05-25T10:48:40Z</time>
      </trkpt>
      <trkpt lat="45.13752" lon="2.4853">
        <ele>928.29028320312</ele>
        <time>2013-05-25T10:48:46Z</time>
      </trkpt>
      <trkpt lat="45.13751" lon="2.48535">
        <ele>928.29028320312</ele>
        <time>2013-05-25T10:48:49Z</time>
      </trkpt>
      <trkpt lat="45.13749" lon="2.48537">
        <ele>928.29028320312</ele>
        <time>2013-05-25T10:48:51Z</time>
      </trkpt>
      <trkpt lat="45.13743" lon="2.4855">
        <ele>927.8095703125</ele>
        <time>2013-05-25T10:49:00Z</time>
      </trkpt>
      <trkpt lat="45.13739" lon="2.48555">
        <ele>927.8095703125</ele>
        <time>2013-05-25T10:49:04Z</time>
      </trkpt>
      <trkpt lat="45.13726" lon="2.48585">
        <ele>928.29028320312</ele>
        <time>2013-05-25T10:49:23Z</time>
      </trkpt>
      <trkpt lat="45.13717" lon="2.48603">
        <ele>928.29028320312</ele>
        <time>2013-05-25T10:49:34Z</time>
      </trkpt>
      <trkpt lat="45.13713" lon="2.48614">
        <ele>928.77099609375</ele>
        <time>2013-05-25T10:49:42Z</time>
      </trkpt>
      <trkpt lat="45.1371" lon="2.48618">
        <ele>928.77099609375</ele>
        <time>2013-05-25T10:49:45Z</time>
      </trkpt>
      <trkpt lat="45.13707" lon="2.48635">
        <ele>928.77099609375</ele>
        <time>2013-05-25T10:49:56Z</time>
      </trkpt>
      <trkpt lat="45.13703" lon="2.48644">
        <ele>928.77099609375</ele>
        <time>2013-05-25T10:50:02Z</time>
      </trkpt>
      <trkpt lat="45.13696" lon="2.48667">
        <ele>928.29028320312</ele>
        <time>2013-05-25T10:50:16Z</time>
      </trkpt>
      <trkpt lat="45.13689" lon="2.48694">
        <ele>927.8095703125</ele>
        <time>2013-05-25T10:50:30Z</time>
      </trkpt>
      <trkpt lat="45.13678" lon="2.48715">
        <ele>928.29028320312</ele>
        <time>2013-05-25T10:50:45Z</time>
      </trkpt>
      <trkpt lat="45.13677" lon="2.48718">
        <ele>928.29028320312</ele>
        <time>2013-05-25T10:50:47Z</time>
      </trkpt>
      <trkpt lat="45.13677" lon="2.48725">
        <ele>928.29028320312</ele>
        <time>2013-05-25T10:50:53Z</time>
      </trkpt>
      <trkpt lat="45.13669" lon="2.48742">
        <ele>927.8095703125</ele>
        <time>2013-05-25T10:51:07Z</time>
      </trkpt>
      <trkpt lat="45.13663" lon="2.48748">
        <ele>930.212890625</ele>
        <time>2013-05-25T10:51:18Z</time>
      </trkpt>
      <trkpt lat="45.13662" lon="2.48754">
        <ele>931.65478515625</ele>
        <time>2013-05-25T10:51:31Z</time>
      </trkpt>
      <trkpt lat="45.13658" lon="2.48757">
        <ele>932.6162109375</ele>
        <time>2013-05-25T10:51:40Z</time>
      </trkpt>
      <trkpt lat="45.1365" lon="2.48765">
        <ele>935.5</ele>
        <time>2013-05-25T10:51:54Z</time>
      </trkpt>
      <trkpt lat="45.13646" lon="2.48769">
        <ele>936.46142578125</ele>
        <time>2013-05-25T10:51:59Z</time>
      </trkpt>
      <trkpt lat="45.13641" lon="2.48773">
        <ele>936.46142578125</ele>
        <time>2013-05-25T10:52:06Z</time>
      </trkpt>
      <trkpt lat="45.13633" lon="2.48782">
        <ele>938.38403320312</ele>
        <time>2013-05-25T10:52:18Z</time>
      </trkpt>
      <trkpt lat="45.13632" lon="2.48783">
        <ele>938.38403320312</ele>
        <time>2013-05-25T10:52:20Z</time>
      </trkpt>
      <trkpt lat="45.1363" lon="2.48784">
        <ele>937.9033203125</ele>
        <time>2013-05-25T10:52:22Z</time>
      </trkpt>
      <trkpt lat="45.13625" lon="2.48792">
        <ele>937.9033203125</ele>
        <time>2013-05-25T10:52:29Z</time>
      </trkpt>
      <trkpt lat="45.13619" lon="2.48795">
        <ele>937.9033203125</ele>
        <time>2013-05-25T10:52:35Z</time>
      </trkpt>
      <trkpt lat="45.13616" lon="2.48793">
        <ele>938.38403320312</ele>
        <time>2013-05-25T10:52:40Z</time>
      </trkpt>
      <trkpt lat="45.13605" lon="2.48789">
        <ele>939.34521484375</ele>
        <time>2013-05-25T10:52:49Z</time>
      </trkpt>
      <trkpt lat="45.13602" lon="2.48789">
        <ele>938.86474609375</ele>
        <time>2013-05-25T10:52:51Z</time>
      </trkpt>
      <trkpt lat="45.13595" lon="2.48795">
        <ele>938.86474609375</ele>
        <time>2013-05-25T10:52:56Z</time>
      </trkpt>
      <trkpt lat="45.13583" lon="2.48794">
        <ele>937.42260742188</ele>
        <time>2013-05-25T10:53:07Z</time>
      </trkpt>
      <trkpt lat="45.1358" lon="2.48788">
        <ele>936.46142578125</ele>
        <time>2013-05-25T10:53:16Z</time>
      </trkpt>
      <trkpt lat="45.13574" lon="2.48787">
        <ele>936.94189453125</ele>
        <time>2013-05-25T10:53:19Z</time>
      </trkpt>
      <trkpt lat="45.13565" lon="2.48786">
        <ele>936.46142578125</ele>
        <time>2013-05-25T10:53:26Z</time>
      </trkpt>
      <trkpt lat="45.13558" lon="2.4879">
        <ele>936.94189453125</ele>
        <time>2013-05-25T10:53:31Z</time>
      </trkpt>
      <trkpt lat="45.13555" lon="2.48798">
        <ele>937.42260742188</ele>
        <time>2013-05-25T10:53:37Z</time>
      </trkpt>
      <trkpt lat="45.13552" lon="2.48798">
        <ele>938.38403320312</ele>
        <time>2013-05-25T10:53:39Z</time>
      </trkpt>
      <trkpt lat="45.13549" lon="2.48805">
        <ele>938.38403320312</ele>
        <time>2013-05-25T10:53:43Z</time>
      </trkpt>
      <trkpt lat="45.13549" lon="2.48812">
        <ele>939.34521484375</ele>
        <time>2013-05-25T10:53:47Z</time>
      </trkpt>
      <trkpt lat="45.13544" lon="2.48817">
        <ele>939.82592773438</ele>
        <time>2013-05-25T10:53:52Z</time>
      </trkpt>
      <trkpt lat="45.1354" lon="2.48824">
        <ele>939.82592773438</ele>
        <time>2013-05-25T10:53:56Z</time>
      </trkpt>
      <trkpt lat="45.13542" lon="2.48836">
        <ele>940.30688476562</ele>
        <time>2013-05-25T10:54:04Z</time>
      </trkpt>
      <trkpt lat="45.13534" lon="2.48854">
        <ele>943.19067382812</ele>
        <time>2013-05-25T10:54:18Z</time>
      </trkpt>
      <trkpt lat="45.13534" lon="2.48861">
        <ele>942.71020507812</ele>
        <time>2013-05-25T10:54:23Z</time>
      </trkpt>
      <trkpt lat="45.13533" lon="2.48864">
        <ele>944.15209960938</ele>
        <time>2013-05-25T10:54:26Z</time>
      </trkpt>
      <trkpt lat="45.13529" lon="2.48877">
        <ele>944.63256835938</ele>
        <time>2013-05-25T10:54:39Z</time>
      </trkpt>
      <trkpt lat="45.13529" lon="2.4888">
        <ele>944.63256835938</ele>
        <time>2013-05-25T10:54:44Z</time>
      </trkpt>
      <trkpt lat="45.13528" lon="2.48895">
        <ele>945.11328125</ele>
        <time>2013-05-25T10:54:54Z</time>
      </trkpt>
      <trkpt lat="45.13526" lon="2.48907">
        <ele>946.55541992188</ele>
        <time>2013-05-25T10:55:02Z</time>
      </trkpt>
      <trkpt lat="45.13523" lon="2.48909">
        <ele>945.59399414062</ele>
        <time>2013-05-25T10:55:05Z</time>
      </trkpt>
      <trkpt lat="45.13517" lon="2.48924">
        <ele>946.55541992188</ele>
        <time>2013-05-25T10:55:16Z</time>
      </trkpt>
      <trkpt lat="45.1351" lon="2.48938">
        <ele>947.03588867188</ele>
        <time>2013-05-25T10:55:28Z</time>
      </trkpt>
      <trkpt lat="45.13509" lon="2.48944">
        <ele>947.03588867188</ele>
        <time>2013-05-25T10:55:32Z</time>
      </trkpt>
      <trkpt lat="45.13505" lon="2.48947">
        <ele>947.03588867188</ele>
        <time>2013-05-25T10:55:37Z</time>
      </trkpt>
      <trkpt lat="45.13502" lon="2.48957">
        <ele>947.03588867188</ele>
        <time>2013-05-25T10:55:43Z</time>
      </trkpt>
      <trkpt lat="45.13498" lon="2.4896">
        <ele>947.03588867188</ele>
        <time>2013-05-25T10:55:47Z</time>
      </trkpt>
      <trkpt lat="45.1349" lon="2.48971">
        <ele>947.99731445312</ele>
        <time>2013-05-25T10:55:56Z</time>
      </trkpt>
      <trkpt lat="45.13489" lon="2.48972">
        <ele>947.03588867188</ele>
        <time>2013-05-25T10:55:57Z</time>
      </trkpt>
      <trkpt lat="45.13483" lon="2.48984">
        <ele>947.99731445312</ele>
        <time>2013-05-25T10:56:07Z</time>
      </trkpt>
      <trkpt lat="45.13481" lon="2.4899">
        <ele>948.47778320312</ele>
        <time>2013-05-25T10:56:12Z</time>
      </trkpt>
      <trkpt lat="45.13478" lon="2.48991">
        <ele>948.47778320312</ele>
        <time>2013-05-25T10:56:14Z</time>
      </trkpt>
      <trkpt lat="45.13472" lon="2.49005">
        <ele>948.95849609375</ele>
        <time>2013-05-25T10:56:26Z</time>
      </trkpt>
      <trkpt lat="45.13465" lon="2.49012">
        <ele>947.99731445312</ele>
        <time>2013-05-25T10:56:38Z</time>
      </trkpt>
      <trkpt lat="45.1346" lon="2.49013">
        <ele>948.95849609375</ele>
        <time>2013-05-25T10:56:47Z</time>
      </trkpt>
      <trkpt lat="45.13453" lon="2.49019">
        <ele>949.43920898438</ele>
        <time>2013-05-25T10:56:56Z</time>
      </trkpt>
      <trkpt lat="45.13448" lon="2.49023">
        <ele>948.95849609375</ele>
        <time>2013-05-25T10:57:01Z</time>
      </trkpt>
      <trkpt lat="45.13445" lon="2.49026">
        <ele>948.47778320312</ele>
        <time>2013-05-25T10:57:06Z</time>
      </trkpt>
      <trkpt lat="45.13443" lon="2.49028">
        <ele>947.99731445312</ele>
        <time>2013-05-25T10:57:14Z</time>
      </trkpt>
      <trkpt lat="45.13436" lon="2.49033">
        <ele>946.07470703125</ele>
        <time>2013-05-25T10:57:23Z</time>
      </trkpt>
      <trkpt lat="45.13432" lon="2.49035">
        <ele>946.55541992188</ele>
        <time>2013-05-25T10:57:27Z</time>
      </trkpt>
      <trkpt lat="45.13423" lon="2.49051">
        <ele>945.11328125</ele>
        <time>2013-05-25T10:57:38Z</time>
      </trkpt>
      <trkpt lat="45.13417" lon="2.49058">
        <ele>944.15209960938</ele>
        <time>2013-05-25T10:57:46Z</time>
      </trkpt>
      <trkpt lat="45.13412" lon="2.49063">
        <ele>944.63256835938</ele>
        <time>2013-05-25T10:57:49Z</time>
      </trkpt>
      <trkpt lat="45.13409" lon="2.49067">
        <ele>944.15209960938</ele>
        <time>2013-05-25T10:57:52Z</time>
      </trkpt>
      <trkpt lat="45.13405" lon="2.49072">
        <ele>944.15209960938</ele>
        <time>2013-05-25T10:57:57Z</time>
      </trkpt>
      <trkpt lat="45.13399" lon="2.49078">
        <ele>944.15209960938</ele>
        <time>2013-05-25T10:58:04Z</time>
      </trkpt>
      <trkpt lat="45.13395" lon="2.49086">
        <ele>944.15209960938</ele>
        <time>2013-05-25T10:58:10Z</time>
      </trkpt>
      <trkpt lat="45.13389" lon="2.49099">
        <ele>944.63256835938</ele>
        <time>2013-05-25T10:58:18Z</time>
      </trkpt>
      <trkpt lat="45.13385" lon="2.49108">
        <ele>944.15209960938</ele>
        <time>2013-05-25T10:58:22Z</time>
      </trkpt>
      <trkpt lat="45.13384" lon="2.49108">
        <ele>943.67138671875</ele>
        <time>2013-05-25T10:58:24Z</time>
      </trkpt>
      <trkpt lat="45.13376" lon="2.49123">
        <ele>944.15209960938</ele>
        <time>2013-05-25T10:58:36Z</time>
      </trkpt>
      <trkpt lat="45.13376" lon="2.49127">
        <ele>944.15209960938</ele>
        <time>2013-05-25T10:58:38Z</time>
      </trkpt>
      <trkpt lat="45.13373" lon="2.49136">
        <ele>943.67138671875</ele>
        <time>2013-05-25T10:58:47Z</time>
      </trkpt>
      <trkpt lat="45.13371" lon="2.49139">
        <ele>943.67138671875</ele>
        <time>2013-05-25T10:58:52Z</time>
      </trkpt>
      <trkpt lat="45.1337" lon="2.49141">
        <ele>943.19067382812</ele>
        <time>2013-05-25T10:58:54Z</time>
      </trkpt>
      <trkpt lat="45.13363" lon="2.49138">
        <ele>942.71020507812</ele>
        <time>2013-05-25T10:59:01Z</time>
      </trkpt>
      <trkpt lat="45.1336" lon="2.49137">
        <ele>943.19067382812</ele>
        <time>2013-05-25T10:59:03Z</time>
      </trkpt>
      <trkpt lat="45.1336" lon="2.49134">
        <ele>943.67138671875</ele>
        <time>2013-05-25T10:59:05Z</time>
      </trkpt>
      <trkpt lat="45.13356" lon="2.49132">
        <ele>944.15209960938</ele>
        <time>2013-05-25T10:59:08Z</time>
      </trkpt>
      <trkpt lat="45.13352" lon="2.49126">
        <ele>943.19067382812</ele>
        <time>2013-05-25T10:59:14Z</time>
      </trkpt>
      <trkpt lat="45.13348" lon="2.49129">
        <ele>942.2294921875</ele>
        <time>2013-05-25T10:59:20Z</time>
      </trkpt>
      <trkpt lat="45.13345" lon="2.4913">
        <ele>941.74877929688</ele>
        <time>2013-05-25T10:59:23Z</time>
      </trkpt>
      <trkpt lat="45.13344" lon="2.49132">
        <ele>942.2294921875</ele>
        <time>2013-05-25T10:59:25Z</time>
      </trkpt>
      <trkpt lat="45.13341" lon="2.49133">
        <ele>942.71020507812</ele>
        <time>2013-05-25T10:59:39Z</time>
      </trkpt>
      <trkpt lat="45.13341" lon="2.49133">
        <ele>942.71020507812</ele>
        <time>2013-05-25T10:59:40Z</time>
      </trkpt>
      <trkpt lat="45.1334" lon="2.49133">
        <ele>942.2294921875</ele>
        <time>2013-05-25T10:59:42Z</time>
      </trkpt>
      <trkpt lat="45.13338" lon="2.49133">
        <ele>942.2294921875</ele>
        <time>2013-05-25T10:59:44Z</time>
      </trkpt>
      <trkpt lat="45.1333" lon="2.49138">
        <ele>940.78735351562</ele>
        <time>2013-05-25T10:59:50Z</time>
      </trkpt>
      <trkpt lat="45.13329" lon="2.49143">
        <ele>941.74877929688</ele>
        <time>2013-05-25T11:00:01Z</time>
      </trkpt>
      <trkpt lat="45.13327" lon="2.49145">
        <ele>938.86474609375</ele>
        <time>2013-05-25T11:00:17Z</time>
      </trkpt>
      <trkpt lat="45.13324" lon="2.49148">
        <ele>936.46142578125</ele>
        <time>2013-05-25T11:00:32Z</time>
      </trkpt>
      <trkpt lat="45.1332" lon="2.49158">
        <ele>933.57739257812</ele>
        <time>2013-05-25T11:00:43Z</time>
      </trkpt>
      <trkpt lat="45.13318" lon="2.49162">
        <ele>933.0966796875</ele>
        <time>2013-05-25T11:00:48Z</time>
      </trkpt>
      <trkpt lat="45.13315" lon="2.49165">
        <ele>932.6162109375</ele>
        <time>2013-05-25T11:00:52Z</time>
      </trkpt>
      <trkpt lat="45.1331" lon="2.49168">
        <ele>930.212890625</ele>
        <time>2013-05-25T11:00:58Z</time>
      </trkpt>
      <trkpt lat="45.13309" lon="2.49176">
        <ele>929.25146484375</ele>
        <time>2013-05-25T11:01:09Z</time>
      </trkpt>
      <trkpt lat="45.1331" lon="2.49179">
        <ele>928.77099609375</ele>
        <time>2013-05-25T11:01:11Z</time>
      </trkpt>
      <trkpt lat="45.13313" lon="2.49183">
        <ele>928.77099609375</ele>
        <time>2013-05-25T11:01:15Z</time>
      </trkpt>
      <trkpt lat="45.13319" lon="2.49194">
        <ele>929.25146484375</ele>
        <time>2013-05-25T11:01:25Z</time>
      </trkpt>
      <trkpt lat="45.1332" lon="2.49198">
        <ele>928.77099609375</ele>
        <time>2013-05-25T11:01:27Z</time>
      </trkpt>
      <trkpt lat="45.13322" lon="2.49201">
        <ele>928.77099609375</ele>
        <time>2013-05-25T11:01:29Z</time>
      </trkpt>
      <trkpt lat="45.13329" lon="2.4921">
        <ele>929.25146484375</ele>
        <time>2013-05-25T11:01:39Z</time>
      </trkpt>
      <trkpt lat="45.1333" lon="2.49213">
        <ele>929.25146484375</ele>
        <time>2013-05-25T11:01:41Z</time>
      </trkpt>
      <trkpt lat="45.13335" lon="2.49219">
        <ele>927.8095703125</ele>
        <time>2013-05-25T11:01:52Z</time>
      </trkpt>
      <trkpt lat="45.13338" lon="2.49226">
        <ele>928.29028320312</ele>
        <time>2013-05-25T11:02:11Z</time>
      </trkpt>
      <trkpt lat="45.13343" lon="2.49226">
        <ele>928.29028320312</ele>
        <time>2013-05-25T11:02:35Z</time>
      </trkpt>
      <trkpt lat="45.13348" lon="2.49222">
        <ele>929.25146484375</ele>
        <time>2013-05-25T11:02:38Z</time>
      </trkpt>
      <trkpt lat="45.13349" lon="2.4922">
        <ele>928.77099609375</ele>
        <time>2013-05-25T11:02:50Z</time>
      </trkpt>
      <trkpt lat="45.13349" lon="2.49223">
        <ele>929.25146484375</ele>
        <time>2013-05-25T11:03:01Z</time>
      </trkpt>
      <trkpt lat="45.13355" lon="2.49229">
        <ele>929.25146484375</ele>
        <time>2013-05-25T11:03:05Z</time>
      </trkpt>
      <trkpt lat="45.13363" lon="2.49225">
        <ele>929.73217773438</ele>
        <time>2013-05-25T11:03:15Z</time>
      </trkpt>
      <trkpt lat="45.13377" lon="2.49225">
        <ele>928.77099609375</ele>
        <time>2013-05-25T11:03:33Z</time>
      </trkpt>
      <trkpt lat="45.13379" lon="2.49228">
        <ele>928.29028320312</ele>
        <time>2013-05-25T11:03:39Z</time>
      </trkpt>
      <trkpt lat="45.13386" lon="2.49235">
        <ele>926.84838867188</ele>
        <time>2013-05-25T11:03:53Z</time>
      </trkpt>
      <trkpt lat="45.13388" lon="2.49236">
        <ele>926.36767578125</ele>
        <time>2013-05-25T11:04:01Z</time>
      </trkpt>
      <trkpt lat="45.13388" lon="2.49237">
        <ele>926.36767578125</ele>
        <time>2013-05-25T11:04:21Z</time>
      </trkpt>
      <trkpt lat="45.13388" lon="2.4924">
        <ele>924.92578125</ele>
        <time>2013-05-25T11:04:24Z</time>
      </trkpt>
      <trkpt lat="45.13391" lon="2.49253">
        <ele>922.52221679688</ele>
        <time>2013-05-25T11:04:38Z</time>
      </trkpt>
      <trkpt lat="45.13394" lon="2.49261">
        <ele>921.56079101562</ele>
        <time>2013-05-25T11:04:44Z</time>
      </trkpt>
      <trkpt lat="45.13398" lon="2.49266">
        <ele>920.11889648438</ele>
        <time>2013-05-25T11:04:50Z</time>
      </trkpt>
      <trkpt lat="45.13402" lon="2.4929">
        <ele>917.23510742188</ele>
        <time>2013-05-25T11:05:10Z</time>
      </trkpt>
      <trkpt lat="45.13404" lon="2.49311">
        <ele>915.79321289062</ele>
        <time>2013-05-25T11:05:27Z</time>
      </trkpt>
      <trkpt lat="45.13399" lon="2.49318">
        <ele>912.9091796875</ele>
        <time>2013-05-25T11:05:37Z</time>
      </trkpt>
      <trkpt lat="45.13404" lon="2.49322">
        <ele>912.9091796875</ele>
        <time>2013-05-25T11:05:54Z</time>
      </trkpt>
      <trkpt lat="45.13412" lon="2.49332">
        <ele>910.98657226562</ele>
        <time>2013-05-25T11:06:15Z</time>
      </trkpt>
      <trkpt lat="45.13418" lon="2.49344">
        <ele>909.54467773438</ele>
        <time>2013-05-25T11:06:26Z</time>
      </trkpt>
      <trkpt lat="45.13423" lon="2.49354">
        <ele>909.54467773438</ele>
        <time>2013-05-25T11:06:39Z</time>
      </trkpt>
      <trkpt lat="45.13428" lon="2.49364">
        <ele>908.10278320312</ele>
        <time>2013-05-25T11:06:51Z</time>
      </trkpt>
      <trkpt lat="45.13438" lon="2.4937">
        <ele>908.58325195312</ele>
        <time>2013-05-25T11:06:59Z</time>
      </trkpt>
      <trkpt lat="45.13444" lon="2.49375">
        <ele>907.62182617188</ele>
        <time>2013-05-25T11:07:11Z</time>
      </trkpt>
      <trkpt lat="45.13451" lon="2.49375">
        <ele>907.62182617188</ele>
        <time>2013-05-25T11:07:22Z</time>
      </trkpt>
      <trkpt lat="45.13454" lon="2.49374">
        <ele>907.62182617188</ele>
        <time>2013-05-25T11:07:24Z</time>
      </trkpt>
      <trkpt lat="45.13458" lon="2.49374">
        <ele>908.58325195312</ele>
        <time>2013-05-25T11:07:30Z</time>
      </trkpt>
      <trkpt lat="45.13476" lon="2.49375">
        <ele>909.54467773438</ele>
        <time>2013-05-25T11:07:44Z</time>
      </trkpt>
      <trkpt lat="45.13485" lon="2.49369">
        <ele>909.06396484375</ele>
        <time>2013-05-25T11:07:56Z</time>
      </trkpt>
      <trkpt lat="45.13486" lon="2.49367">
        <ele>909.06396484375</ele>
        <time>2013-05-25T11:07:59Z</time>
      </trkpt>
      <trkpt lat="45.135" lon="2.49355">
        <ele>909.06396484375</ele>
        <time>2013-05-25T11:08:14Z</time>
      </trkpt>
      <trkpt lat="45.13506" lon="2.49374">
        <ele>910.02514648438</ele>
        <time>2013-05-25T11:08:32Z</time>
      </trkpt>
      <trkpt lat="45.13508" lon="2.49378">
        <ele>909.54467773438</ele>
        <time>2013-05-25T11:08:34Z</time>
      </trkpt>
      <trkpt lat="45.13516" lon="2.49392">
        <ele>910.98657226562</ele>
        <time>2013-05-25T11:08:46Z</time>
      </trkpt>
      <trkpt lat="45.13519" lon="2.49396">
        <ele>911.46728515625</ele>
        <time>2013-05-25T11:08:49Z</time>
      </trkpt>
      <trkpt lat="45.13523" lon="2.49403">
        <ele>911.94799804688</ele>
        <time>2013-05-25T11:08:55Z</time>
      </trkpt>
      <trkpt lat="45.13531" lon="2.49409">
        <ele>912.9091796875</ele>
        <time>2013-05-25T11:09:06Z</time>
      </trkpt>
      <trkpt lat="45.13532" lon="2.4941">
        <ele>913.38989257812</ele>
        <time>2013-05-25T11:09:14Z</time>
      </trkpt>
      <trkpt lat="45.13534" lon="2.4941">
        <ele>912.9091796875</ele>
        <time>2013-05-25T11:09:19Z</time>
      </trkpt>
      <trkpt lat="45.13544" lon="2.49406">
        <ele>916.75439453125</ele>
        <time>2013-05-25T11:09:38Z</time>
      </trkpt>
      <trkpt lat="45.13555" lon="2.49402">
        <ele>919.15771484375</ele>
        <time>2013-05-25T11:09:56Z</time>
      </trkpt>
      <trkpt lat="45.13559" lon="2.49396">
        <ele>921.08032226562</ele>
        <time>2013-05-25T11:10:05Z</time>
      </trkpt>
      <trkpt lat="45.1357" lon="2.49386">
        <ele>922.52221679688</ele>
        <time>2013-05-25T11:10:21Z</time>
      </trkpt>
      <trkpt lat="45.13576" lon="2.4938">
        <ele>924.92578125</ele>
        <time>2013-05-25T11:10:40Z</time>
      </trkpt>
      <trkpt lat="45.13584" lon="2.49372">
        <ele>925.88696289062</ele>
        <time>2013-05-25T11:11:00Z</time>
      </trkpt>
      <trkpt lat="45.13593" lon="2.49369">
        <ele>926.84838867188</ele>
        <time>2013-05-25T11:11:13Z</time>
      </trkpt>
      <trkpt lat="45.13612" lon="2.49358">
        <ele>928.29028320312</ele>
        <time>2013-05-25T11:11:35Z</time>
      </trkpt>
      <trkpt lat="45.13623" lon="2.49348">
        <ele>929.73217773438</ele>
        <time>2013-05-25T11:11:49Z</time>
      </trkpt>
      <trkpt lat="45.13623" lon="2.49347">
        <ele>929.25146484375</ele>
        <time>2013-05-25T11:11:50Z</time>
      </trkpt>
      <trkpt lat="45.13629" lon="2.49343">
        <ele>930.212890625</ele>
        <time>2013-05-25T11:11:56Z</time>
      </trkpt>
      <trkpt lat="45.1363" lon="2.49341">
        <ele>929.73217773438</ele>
        <time>2013-05-25T11:12:01Z</time>
      </trkpt>
      <trkpt lat="45.13633" lon="2.49339">
        <ele>929.73217773438</ele>
        <time>2013-05-25T11:12:04Z</time>
      </trkpt>
      <trkpt lat="45.13646" lon="2.49327">
        <ele>930.69360351562</ele>
        <time>2013-05-25T11:12:19Z</time>
      </trkpt>
      <trkpt lat="45.13655" lon="2.49319">
        <ele>930.69360351562</ele>
        <time>2013-05-25T11:12:30Z</time>
      </trkpt>
      <trkpt lat="45.13656" lon="2.49319">
        <ele>930.69360351562</ele>
        <time>2013-05-25T11:12:31Z</time>
      </trkpt>
      <trkpt lat="45.13661" lon="2.4931">
        <ele>931.65478515625</ele>
        <time>2013-05-25T11:12:38Z</time>
      </trkpt>
      <trkpt lat="45.13671" lon="2.49295">
        <ele>933.0966796875</ele>
        <time>2013-05-25T11:12:53Z</time>
      </trkpt>
      <trkpt lat="45.13675" lon="2.49291">
        <ele>933.0966796875</ele>
        <time>2013-05-25T11:13:00Z</time>
      </trkpt>
      <trkpt lat="45.1368" lon="2.4929">
        <ele>933.0966796875</ele>
        <time>2013-05-25T11:13:07Z</time>
      </trkpt>
      <trkpt lat="45.1369" lon="2.49277">
        <ele>932.13549804688</ele>
        <time>2013-05-25T11:13:20Z</time>
      </trkpt>
      <trkpt lat="45.13694" lon="2.49274">
        <ele>932.13549804688</ele>
        <time>2013-05-25T11:13:25Z</time>
      </trkpt>
      <trkpt lat="45.13698" lon="2.49271">
        <ele>931.65478515625</ele>
        <time>2013-05-25T11:13:29Z</time>
      </trkpt>
      <trkpt lat="45.137" lon="2.49264">
        <ele>931.17431640625</ele>
        <time>2013-05-25T11:13:33Z</time>
      </trkpt>
      <trkpt lat="45.13706" lon="2.49253">
        <ele>930.212890625</ele>
        <time>2013-05-25T11:13:40Z</time>
      </trkpt>
      <trkpt lat="45.13717" lon="2.49241">
        <ele>928.77099609375</ele>
        <time>2013-05-25T11:13:54Z</time>
      </trkpt>
      <trkpt lat="45.1372" lon="2.4924">
        <ele>927.8095703125</ele>
        <time>2013-05-25T11:13:57Z</time>
      </trkpt>
      <trkpt lat="45.13725" lon="2.49242">
        <ele>928.77099609375</ele>
        <time>2013-05-25T11:14:02Z</time>
      </trkpt>
      <trkpt lat="45.13729" lon="2.49242">
        <ele>929.25146484375</ele>
        <time>2013-05-25T11:14:04Z</time>
      </trkpt>
      <trkpt lat="45.13734" lon="2.49241">
        <ele>930.212890625</ele>
        <time>2013-05-25T11:14:08Z</time>
      </trkpt>
      <trkpt lat="45.13746" lon="2.49247">
        <ele>931.65478515625</ele>
        <time>2013-05-25T11:14:18Z</time>
      </trkpt>
      <trkpt lat="45.13748" lon="2.49247">
        <ele>931.65478515625</ele>
        <time>2013-05-25T11:14:20Z</time>
      </trkpt>
      <trkpt lat="45.13761" lon="2.49251">
        <ele>933.0966796875</ele>
        <time>2013-05-25T11:14:32Z</time>
      </trkpt>
      <trkpt lat="45.13768" lon="2.49251">
        <ele>934.53881835938</ele>
        <time>2013-05-25T11:14:38Z</time>
      </trkpt>
      <trkpt lat="45.13783" lon="2.49256">
        <ele>936.46142578125</ele>
        <time>2013-05-25T11:14:52Z</time>
      </trkpt>
      <trkpt lat="45.13787" lon="2.49258">
        <ele>936.46142578125</ele>
        <time>2013-05-25T11:14:56Z</time>
      </trkpt>
      <trkpt lat="45.13789" lon="2.4926">
        <ele>937.42260742188</ele>
        <time>2013-05-25T11:14:59Z</time>
      </trkpt>
      <trkpt lat="45.13786" lon="2.49273">
        <ele>939.82592773438</ele>
        <time>2013-05-25T11:15:16Z</time>
      </trkpt>
      <trkpt lat="45.13781" lon="2.49273">
        <ele>940.30688476562</ele>
        <time>2013-05-25T11:15:21Z</time>
      </trkpt>
      <trkpt lat="45.13778" lon="2.49273">
        <ele>940.30688476562</ele>
        <time>2013-05-25T11:15:23Z</time>
      </trkpt>
      <trkpt lat="45.13769" lon="2.49287">
        <ele>942.2294921875</ele>
        <time>2013-05-25T11:15:35Z</time>
      </trkpt>
      <trkpt lat="45.13768" lon="2.4929">
        <ele>942.2294921875</ele>
        <time>2013-05-25T11:15:37Z</time>
      </trkpt>
      <trkpt lat="45.1376" lon="2.49304">
        <ele>942.71020507812</ele>
        <time>2013-05-25T11:15:54Z</time>
      </trkpt>
      <trkpt lat="45.13755" lon="2.49313">
        <ele>943.67138671875</ele>
        <time>2013-05-25T11:15:58Z</time>
      </trkpt>
      <trkpt lat="45.13755" lon="2.49318">
        <ele>944.15209960938</ele>
        <time>2013-05-25T11:16:01Z</time>
      </trkpt>
      <trkpt lat="45.13741" lon="2.49317">
        <ele>943.67138671875</ele>
        <time>2013-05-25T11:16:11Z</time>
      </trkpt>
      <trkpt lat="45.1373" lon="2.49326">
        <ele>945.11328125</ele>
        <time>2013-05-25T11:16:25Z</time>
      </trkpt>
      <trkpt lat="45.13724" lon="2.49333">
        <ele>945.11328125</ele>
        <time>2013-05-25T11:16:35Z</time>
      </trkpt>
      <trkpt lat="45.13708" lon="2.49352">
        <ele>946.07470703125</ele>
        <time>2013-05-25T11:16:52Z</time>
      </trkpt>
      <trkpt lat="45.13697" lon="2.49361">
        <ele>946.07470703125</ele>
        <time>2013-05-25T11:16:59Z</time>
      </trkpt>
      <trkpt lat="45.13692" lon="2.49368">
        <ele>946.07470703125</ele>
        <time>2013-05-25T11:17:02Z</time>
      </trkpt>
      <trkpt lat="45.13683" lon="2.49377">
        <ele>945.59399414062</ele>
        <time>2013-05-25T11:17:12Z</time>
      </trkpt>
      <trkpt lat="45.1367" lon="2.49393">
        <ele>945.59399414062</ele>
        <time>2013-05-25T11:17:27Z</time>
      </trkpt>
      <trkpt lat="45.13672" lon="2.49395">
        <ele>945.59399414062</ele>
        <time>2013-05-25T11:17:33Z</time>
      </trkpt>
      <trkpt lat="45.13675" lon="2.49407">
        <ele>945.59399414062</ele>
        <time>2013-05-25T11:17:41Z</time>
      </trkpt>
      <trkpt lat="45.13676" lon="2.49413">
        <ele>946.07470703125</ele>
        <time>2013-05-25T11:17:45Z</time>
      </trkpt>
      <trkpt lat="45.13678" lon="2.49413">
        <ele>946.07470703125</ele>
        <time>2013-05-25T11:17:47Z</time>
      </trkpt>
      <trkpt lat="45.13685" lon="2.4943">
        <ele>947.5166015625</ele>
        <time>2013-05-25T11:18:00Z</time>
      </trkpt>
      <trkpt lat="45.13692" lon="2.49445">
        <ele>948.47778320312</ele>
        <time>2013-05-25T11:18:10Z</time>
      </trkpt>
      <trkpt lat="45.13694" lon="2.49445">
        <ele>948.47778320312</ele>
        <time>2013-05-25T11:18:12Z</time>
      </trkpt>
      <trkpt lat="45.13704" lon="2.49462">
        <ele>948.95849609375</ele>
        <time>2013-05-25T11:18:22Z</time>
      </trkpt>
      <trkpt lat="45.13717" lon="2.49447">
        <ele>949.43920898438</ele>
        <time>2013-05-25T11:18:36Z</time>
      </trkpt>
      <trkpt lat="45.13722" lon="2.49438">
        <ele>949.43920898438</ele>
        <time>2013-05-25T11:18:45Z</time>
      </trkpt>
      <trkpt lat="45.13728" lon="2.49435">
        <ele>950.40063476562</ele>
        <time>2013-05-25T11:18:56Z</time>
      </trkpt>
      <trkpt lat="45.1374" lon="2.49427">
        <ele>950.88110351562</ele>
        <time>2013-05-25T11:19:08Z</time>
      </trkpt>
      <trkpt lat="45.13762" lon="2.49412">
        <ele>950.88110351562</ele>
        <time>2013-05-25T11:19:20Z</time>
      </trkpt>
      <trkpt lat="45.13772" lon="2.49407">
        <ele>951.36181640625</ele>
        <time>2013-05-25T11:19:30Z</time>
      </trkpt>
      <trkpt lat="45.1377" lon="2.49399">
        <ele>951.36181640625</ele>
        <time>2013-05-25T11:19:50Z</time>
      </trkpt>
      <trkpt lat="45.13775" lon="2.49413">
        <ele>950.88110351562</ele>
        <time>2013-05-25T11:20:11Z</time>
      </trkpt>
      <trkpt lat="45.13782" lon="2.49413">
        <ele>951.84252929688</ele>
        <time>2013-05-25T11:20:35Z</time>
      </trkpt>
      <trkpt lat="45.13787" lon="2.49411">
        <ele>951.36181640625</ele>
        <time>2013-05-25T11:21:01Z</time>
      </trkpt>
      <trkpt lat="45.13787" lon="2.49413">
        <ele>953.76513671875</ele>
        <time>2013-05-25T11:25:38Z</time>
      </trkpt>
      <trkpt lat="45.13787" lon="2.49414">
        <ele>953.76513671875</ele>
        <time>2013-05-25T11:27:54Z</time>
      </trkpt>
      <trkpt lat="45.13787" lon="2.49414">
        <ele>955.20703125</ele>
        <time>2013-05-25T11:30:59Z</time>
      </trkpt>
    </trkseg>
  </trk>
</gpx>